SIA326 WSSS-EDDF
Flight info
| Callsign | SIA326 |
|---|---|
| Flight time | 12h 50m |
| Altitude | 30000 |
| Route | AROSO Y513 KALIL Y501 RINBA Y503 VPL P628 URKOK DCT NIKIR DCT OPASA P628 RK G202 ZB L750 GODSI L750 RANAH B449 ETRAP B447 KRS B143 TUNEK A909 RODAR M11 REBLO UM11 CRM UL746 ODERO DCT OPT DCT TEGRI DCT ARSIN DCT SUBEN DCT AKINI T161 DEBHI |
| Aircraft | A388/J-SADE2E3FGHIJ3J4J5M1RWXY/LB1D1 |
Departure
| Time | 2026-04-10 20:11 |
|---|---|
| Airport | Singapore Changi Airport (WSSS) |
Arrival
| Time | 2026-04-11 09:01 |
|---|---|
| Airport | Frankfurt Main Airport (EDDF) |
| Time | Latitude | Longitude | Altitude | Speed | Heading |
|---|---|---|---|---|---|
| 2026-04-10 19:48 | 1.35278 | 103.98401 | 29 ft | 0 kts | 109° |
| 2026-04-10 20:02 | 1.35282 | 103.98388 | 30 ft | 4 kts | 113° |
| 2026-04-10 20:02 | 1.35294 | 103.98364 | 29 ft | 4 kts | 122° |
| 2026-04-10 20:02 | 1.35310 | 103.98342 | 28 ft | 4 kts | 131° |
| 2026-04-10 20:03 | 1.35329 | 103.98323 | 28 ft | 4 kts | 141° |
| 2026-04-10 20:03 | 1.35352 | 103.98308 | 28 ft | 4 kts | 154° |
| 2026-04-10 20:03 | 1.35367 | 103.98302 | 27 ft | 1 kts | 160° |
| 2026-04-10 20:06 | 1.35349 | 103.98308 | 28 ft | 4 kts | 166° |
| 2026-04-10 20:06 | 1.35310 | 103.98308 | 29 ft | 7 kts | 193° |
| 2026-04-10 20:07 | 1.35186 | 103.98261 | 30 ft | 12 kts | 202° |
| 2026-04-10 20:07 | 1.35123 | 103.98205 | 30 ft | 13 kts | 241° |
| 2026-04-10 20:07 | 1.35073 | 103.98125 | 30 ft | 14 kts | 220° |
| 2026-04-10 20:08 | 1.34984 | 103.98079 | 30 ft | 15 kts | 202° |
| 2026-04-10 20:08 | 1.34882 | 103.98037 | 30 ft | 17 kts | 202° |
| 2026-04-10 20:08 | 1.34791 | 103.97999 | 30 ft | 10 kts | 202° |
| 2026-04-10 20:08 | 1.34737 | 103.97973 | 30 ft | 8 kts | 226° |
| 2026-04-10 20:09 | 1.34730 | 103.97924 | 30 ft | 8 kts | 291° |
| 2026-04-10 20:09 | 1.34754 | 103.97866 | 31 ft | 10 kts | 292° |
| 2026-04-10 20:09 | 1.34794 | 103.97814 | 32 ft | 9 kts | 327° |
| 2026-04-10 20:09 | 1.34850 | 103.97788 | 34 ft | 9 kts | 338° |
| 2026-04-10 20:10 | 1.34907 | 103.97765 | 35 ft | 9 kts | 347° |
| 2026-04-10 20:10 | 1.34966 | 103.97774 | 35 ft | 5 kts | 23° |
| 2026-04-10 20:10 | 1.35010 | 103.97793 | 34 ft | 27 kts | 22° |
| 2026-04-10 20:10 | 1.35407 | 103.97961 | 33 ft | 98 kts | 23° |
| 2026-04-10 20:11 | 1.36222 | 103.98304 | 33 ft | 152 kts | 22° |
| 2026-04-10 20:11 | 1.37305 | 103.98767 | 84 ft | 181 kts | 23° |
| 2026-04-10 20:11 | 1.38461 | 103.99243 | 570 ft | 180 kts | 23° |
| 2026-04-10 20:11 | 1.39636 | 103.99720 | 982 ft | 184 kts | 24° |
| 2026-04-10 20:12 | 1.40808 | 104.00209 | 1396 ft | 186 kts | 24° |
| 2026-04-10 20:12 | 1.42006 | 104.00717 | 1771 ft | 191 kts | 24° |
| 2026-04-10 20:12 | 1.43278 | 104.01261 | 1887 ft | 205 kts | 25° |
| 2026-04-10 20:12 | 1.44622 | 104.01837 | 1999 ft | 216 kts | 25° |
| 2026-04-10 20:13 | 1.46019 | 104.02437 | 2083 ft | 225 kts | 24° |
| 2026-04-10 20:13 | 1.47518 | 104.03080 | 2184 ft | 245 kts | 24° |
| 2026-04-10 20:13 | 1.49174 | 104.03697 | 2376 ft | 263 kts | 10° |
| 2026-04-10 20:13 | 1.51016 | 104.03590 | 2793 ft | 269 kts | 340° |
| 2026-04-10 20:14 | 1.52701 | 104.02797 | 3461 ft | 268 kts | 332° |
| 2026-04-10 20:14 | 1.54348 | 104.01929 | 4113 ft | 268 kts | 331° |
| 2026-04-10 20:14 | 1.56008 | 104.01062 | 4769 ft | 269 kts | 331° |
| 2026-04-10 20:14 | 1.57665 | 104.00209 | 5357 ft | 272 kts | 331° |
| 2026-04-10 20:15 | 1.59364 | 103.99346 | 5934 ft | 275 kts | 332° |
| 2026-04-10 20:15 | 1.61077 | 103.98482 | 6494 ft | 277 kts | 332° |
| 2026-04-10 20:15 | 1.62811 | 103.97612 | 7055 ft | 280 kts | 332° |
| 2026-04-10 20:15 | 1.64567 | 103.96732 | 7617 ft | 282 kts | 332° |
| 2026-04-10 20:16 | 1.66310 | 103.95859 | 8157 ft | 284 kts | 332° |
| 2026-04-10 20:16 | 1.68088 | 103.94968 | 8707 ft | 287 kts | 332° |
| 2026-04-10 20:16 | 1.69888 | 103.94065 | 9245 ft | 289 kts | 333° |
| 2026-04-10 20:16 | 1.71696 | 103.93159 | 9802 ft | 292 kts | 333° |
| 2026-04-10 20:17 | 1.73524 | 103.92243 | 10224 ft | 298 kts | 333° |
| 2026-04-10 20:17 | 1.75343 | 103.91137 | 10353 ft | 314 kts | 321° |
| 2026-04-10 20:17 | 1.76944 | 103.89585 | 10482 ft | 328 kts | 309° |
| 2026-04-10 20:17 | 1.78326 | 103.87743 | 10644 ft | 341 kts | 307° |
| 2026-04-10 20:18 | 1.79762 | 103.85835 | 11050 ft | 345 kts | 307° |
| 2026-04-10 20:18 | 1.81231 | 103.83918 | 11495 ft | 347 kts | 308° |
| 2026-04-10 20:18 | 1.82712 | 103.82002 | 11982 ft | 350 kts | 308° |
| 2026-04-10 20:18 | 1.84209 | 103.80068 | 12454 ft | 353 kts | 308° |
| 2026-04-10 20:19 | 1.85717 | 103.78117 | 12920 ft | 356 kts | 308° |
| 2026-04-10 20:19 | 1.87237 | 103.76150 | 13390 ft | 358 kts | 308° |
| 2026-04-10 20:19 | 1.88751 | 103.74192 | 13818 ft | 361 kts | 308° |
| 2026-04-10 20:19 | 1.90294 | 103.72196 | 14236 ft | 364 kts | 308° |
| 2026-04-10 20:20 | 1.91847 | 103.70180 | 14639 ft | 366 kts | 308° |
| 2026-04-10 20:20 | 1.93407 | 103.68153 | 15058 ft | 369 kts | 308° |
| 2026-04-10 20:20 | 1.94975 | 103.66113 | 15463 ft | 371 kts | 308° |
| 2026-04-10 20:20 | 1.96558 | 103.64054 | 15858 ft | 374 kts | 308° |
| 2026-04-10 20:21 | 1.98150 | 103.61985 | 16249 ft | 376 kts | 308° |
| 2026-04-10 20:21 | 1.99751 | 103.59904 | 16662 ft | 379 kts | 308° |
| 2026-04-10 20:21 | 2.01366 | 103.57805 | 17054 ft | 381 kts | 309° |
| 2026-04-10 20:21 | 2.02972 | 103.55717 | 17442 ft | 384 kts | 309° |
| 2026-04-10 20:22 | 2.04607 | 103.53592 | 17828 ft | 386 kts | 309° |
| 2026-04-10 20:22 | 2.06250 | 103.51456 | 18201 ft | 389 kts | 309° |
| 2026-04-10 20:22 | 2.07909 | 103.49300 | 18532 ft | 391 kts | 309° |
| 2026-04-10 20:22 | 2.09572 | 103.47137 | 18860 ft | 393 kts | 308° |
| 2026-04-10 20:23 | 2.11244 | 103.44963 | 19181 ft | 395 kts | 308° |
| 2026-04-10 20:23 | 2.12912 | 103.42767 | 19494 ft | 398 kts | 306° |
| 2026-04-10 20:23 | 2.14327 | 103.40415 | 19799 ft | 401 kts | 297° |
| 2026-04-10 20:23 | 2.15418 | 103.37842 | 20102 ft | 404 kts | 289° |
| 2026-04-10 20:24 | 2.16213 | 103.35135 | 20399 ft | 406 kts | 287° |
| 2026-04-10 20:24 | 2.16998 | 103.32403 | 20705 ft | 408 kts | 287° |
| 2026-04-10 20:24 | 2.17798 | 103.29673 | 21004 ft | 410 kts | 287° |
| 2026-04-10 20:24 | 2.18608 | 103.26922 | 21304 ft | 412 kts | 287° |
| 2026-04-10 20:25 | 2.19418 | 103.24165 | 21598 ft | 414 kts | 287° |
| 2026-04-10 20:25 | 2.20232 | 103.21392 | 21894 ft | 416 kts | 287° |
| 2026-04-10 20:25 | 2.21048 | 103.18607 | 22180 ft | 419 kts | 287° |
| 2026-04-10 20:25 | 2.21870 | 103.15804 | 22467 ft | 421 kts | 287° |
| 2026-04-10 20:26 | 2.22684 | 103.13024 | 22765 ft | 422 kts | 287° |
| 2026-04-10 20:26 | 2.23512 | 103.10195 | 23048 ft | 424 kts | 287° |
| 2026-04-10 20:26 | 2.24344 | 103.07355 | 23322 ft | 426 kts | 287° |
| 2026-04-10 20:26 | 2.25179 | 103.04500 | 23577 ft | 428 kts | 287° |
| 2026-04-10 20:27 | 2.26018 | 103.01632 | 23811 ft | 430 kts | 287° |
| 2026-04-10 20:27 | 2.26859 | 102.98761 | 24038 ft | 432 kts | 287° |
| 2026-04-10 20:27 | 2.27703 | 102.95877 | 24266 ft | 433 kts | 287° |
| 2026-04-10 20:27 | 2.28551 | 102.92977 | 24498 ft | 435 kts | 287° |
| 2026-04-10 20:28 | 2.29393 | 102.90102 | 24725 ft | 437 kts | 287° |
| 2026-04-10 20:28 | 2.30248 | 102.87180 | 24945 ft | 439 kts | 287° |
| 2026-04-10 20:28 | 2.31111 | 102.84234 | 25175 ft | 440 kts | 287° |
| 2026-04-10 20:28 | 2.31976 | 102.81292 | 25407 ft | 442 kts | 287° |
| 2026-04-10 20:29 | 2.32848 | 102.78326 | 25621 ft | 444 kts | 287° |
| 2026-04-10 20:29 | 2.33707 | 102.75395 | 25839 ft | 445 kts | 287° |
| 2026-04-10 20:29 | 2.34578 | 102.72413 | 26076 ft | 447 kts | 287° |
| 2026-04-10 20:29 | 2.35452 | 102.69419 | 26306 ft | 449 kts | 287° |
| 2026-04-10 20:30 | 2.36328 | 102.66420 | 26536 ft | 451 kts | 287° |
| 2026-04-10 20:30 | 2.37213 | 102.63389 | 26779 ft | 453 kts | 287° |
| 2026-04-10 20:30 | 2.38101 | 102.60350 | 27023 ft | 455 kts | 287° |
| 2026-04-10 20:30 | 2.38990 | 102.57305 | 27266 ft | 457 kts | 287° |
| 2026-04-10 20:31 | 2.39871 | 102.54289 | 27512 ft | 459 kts | 287° |
| 2026-04-10 20:31 | 2.40768 | 102.51218 | 27773 ft | 461 kts | 287° |
| 2026-04-10 20:31 | 2.41671 | 102.48126 | 28029 ft | 463 kts | 287° |
| 2026-04-10 20:31 | 2.42576 | 102.45027 | 28290 ft | 465 kts | 287° |
| 2026-04-10 20:32 | 2.43176 | 102.42971 | 28470 ft | 466 kts | 287° |
| 2026-04-10 20:32 | 2.44089 | 102.39845 | 28747 ft | 468 kts | 287° |
| 2026-04-10 20:32 | 2.45043 | 102.36730 | 29016 ft | 470 kts | 291° |
| 2026-04-10 20:32 | 2.46488 | 102.33794 | 29281 ft | 471 kts | 303° |
| 2026-04-10 20:33 | 2.49259 | 102.30474 | 29645 ft | 472 kts | 319° |
| 2026-04-10 20:33 | 2.50981 | 102.29074 | 29837 ft | 472 kts | 323° |
| 2026-04-10 20:33 | 2.53594 | 102.27067 | 30097 ft | 475 kts | 323° |
| 2026-04-10 20:33 | 2.56182 | 102.25065 | 30362 ft | 476 kts | 323° |
| 2026-04-10 20:34 | 2.58803 | 102.23023 | 30653 ft | 478 kts | 323° |
| 2026-04-10 20:34 | 2.61427 | 102.20969 | 30932 ft | 480 kts | 323° |
| 2026-04-10 20:34 | 2.64048 | 102.18911 | 31257 ft | 480 kts | 323° |
| 2026-04-10 20:34 | 2.66687 | 102.16839 | 31518 ft | 482 kts | 323° |
| 2026-04-10 20:35 | 2.69343 | 102.14754 | 31785 ft | 484 kts | 323° |
| 2026-04-10 20:35 | 2.71973 | 102.12691 | 31909 ft | 490 kts | 323° |
| 2026-04-10 20:35 | 2.74685 | 102.10562 | 31901 ft | 499 kts | 323° |
| 2026-04-10 20:36 | 2.80234 | 102.06206 | 31899 ft | 514 kts | 323° |
| 2026-04-10 20:36 | 2.85876 | 102.01776 | 31899 ft | 515 kts | 322° |
| 2026-04-10 20:37 | 2.91516 | 101.97346 | 31899 ft | 515 kts | 322° |
| 2026-04-10 20:37 | 2.97164 | 101.92911 | 31901 ft | 515 kts | 322° |
| 2026-04-10 20:38 | 3.02797 | 101.88485 | 31901 ft | 514 kts | 323° |
| 2026-04-10 20:38 | 3.08383 | 101.84097 | 31899 ft | 514 kts | 323° |
| 2026-04-10 20:39 | 3.14019 | 101.79669 | 31903 ft | 514 kts | 323° |
| 2026-04-10 20:39 | 3.19646 | 101.75248 | 31895 ft | 514 kts | 323° |
| 2026-04-10 20:40 | 3.25271 | 101.70827 | 31891 ft | 514 kts | 322° |
| 2026-04-10 20:40 | 3.30900 | 101.66440 | 31889 ft | 513 kts | 325° |
| 2026-04-10 20:41 | 3.37083 | 101.62904 | 31895 ft | 511 kts | 337° |
| 2026-04-10 20:41 | 3.43557 | 101.60058 | 31895 ft | 511 kts | 337° |
| 2026-04-10 20:42 | 3.50070 | 101.57153 | 31903 ft | 511 kts | 337° |
| 2026-04-10 20:42 | 3.56570 | 101.54258 | 31901 ft | 511 kts | 337° |
| 2026-04-10 20:43 | 3.63026 | 101.51386 | 31904 ft | 511 kts | 337° |
| 2026-04-10 20:43 | 3.69531 | 101.48491 | 31908 ft | 511 kts | 337° |
| 2026-04-10 20:44 | 3.76037 | 101.45596 | 31903 ft | 512 kts | 337° |
| 2026-04-10 20:44 | 3.82553 | 101.42696 | 31902 ft | 512 kts | 337° |
| 2026-04-10 20:45 | 3.89025 | 101.39816 | 31903 ft | 512 kts | 337° |
| 2026-04-10 20:45 | 3.95546 | 101.36916 | 31905 ft | 512 kts | 337° |
| 2026-04-10 20:46 | 4.02070 | 101.34014 | 31908 ft | 512 kts | 337° |
| 2026-04-10 20:46 | 4.08585 | 101.31116 | 31920 ft | 512 kts | 337° |
| 2026-04-10 20:47 | 4.15111 | 101.28212 | 31902 ft | 513 kts | 337° |
| 2026-04-10 20:47 | 4.21597 | 101.25325 | 31909 ft | 513 kts | 337° |
| 2026-04-10 20:48 | 4.28133 | 101.22416 | 31908 ft | 513 kts | 337° |
| 2026-04-10 20:48 | 4.34674 | 101.19503 | 31912 ft | 513 kts | 337° |
| 2026-04-10 20:49 | 4.41204 | 101.16596 | 31908 ft | 513 kts | 337° |
| 2026-04-10 20:49 | 4.47737 | 101.13686 | 31912 ft | 513 kts | 337° |
| 2026-04-10 20:50 | 4.54221 | 101.10796 | 31911 ft | 514 kts | 337° |
| 2026-04-10 20:50 | 4.60760 | 101.07904 | 31911 ft | 513 kts | 338° |
| 2026-04-10 20:51 | 4.67339 | 101.05084 | 31912 ft | 513 kts | 338° |
| 2026-04-10 20:51 | 4.73907 | 101.02265 | 31917 ft | 513 kts | 338° |
| 2026-04-10 20:52 | 4.80445 | 100.99448 | 31913 ft | 513 kts | 338° |
| 2026-04-10 20:52 | 4.87003 | 100.96620 | 31912 ft | 514 kts | 338° |
| 2026-04-10 20:53 | 4.93602 | 100.93773 | 31918 ft | 514 kts | 338° |
| 2026-04-10 20:53 | 5.00193 | 100.90930 | 31916 ft | 514 kts | 338° |
| 2026-04-10 20:54 | 5.06774 | 100.88087 | 31914 ft | 514 kts | 338° |
| 2026-04-10 20:54 | 5.13316 | 100.85259 | 31915 ft | 514 kts | 338° |
| 2026-04-10 20:55 | 5.19902 | 100.82412 | 31909 ft | 514 kts | 338° |
| 2026-04-10 20:55 | 5.26482 | 100.79567 | 31913 ft | 514 kts | 338° |
| 2026-04-10 20:56 | 5.33035 | 100.76685 | 31907 ft | 515 kts | 334° |
| 2026-04-10 20:56 | 5.39012 | 100.72783 | 31917 ft | 518 kts | 321° |
| 2026-04-10 20:57 | 5.44177 | 100.67733 | 31902 ft | 519 kts | 315° |
| 2026-04-10 20:57 | 5.49251 | 100.62565 | 31898 ft | 519 kts | 315° |
| 2026-04-10 20:58 | 5.54329 | 100.57400 | 31891 ft | 519 kts | 315° |
| 2026-04-10 20:58 | 5.59352 | 100.52282 | 31888 ft | 517 kts | 315° |
| 2026-04-10 20:59 | 5.64406 | 100.47130 | 31894 ft | 517 kts | 315° |
| 2026-04-10 20:59 | 5.69458 | 100.41977 | 31891 ft | 517 kts | 315° |
| 2026-04-10 21:00 | 5.74512 | 100.36820 | 31892 ft | 517 kts | 315° |
| 2026-04-10 21:00 | 5.79560 | 100.31668 | 31888 ft | 517 kts | 315° |
| 2026-04-10 21:01 | 5.84581 | 100.26543 | 31884 ft | 517 kts | 315° |
| 2026-04-10 21:01 | 5.89632 | 100.21387 | 31883 ft | 517 kts | 315° |
| 2026-04-10 21:02 | 5.94682 | 100.16229 | 31882 ft | 516 kts | 315° |
| 2026-04-10 21:02 | 5.99685 | 100.11118 | 31881 ft | 516 kts | 315° |
| 2026-04-10 21:03 | 6.04737 | 100.05956 | 31879 ft | 518 kts | 315° |
| 2026-04-10 21:03 | 6.09795 | 100.00785 | 31881 ft | 518 kts | 315° |
| 2026-04-10 21:04 | 6.14850 | 99.95617 | 31878 ft | 518 kts | 315° |
| 2026-04-10 21:04 | 6.19900 | 99.90452 | 31878 ft | 518 kts | 315° |
| 2026-04-10 21:05 | 6.24952 | 99.85283 | 31879 ft | 518 kts | 315° |
| 2026-04-10 21:05 | 6.29975 | 99.80143 | 31885 ft | 519 kts | 315° |
| 2026-04-10 21:06 | 6.34635 | 99.74616 | 31883 ft | 519 kts | 303° |
| 2026-04-10 21:06 | 6.37844 | 99.68118 | 31881 ft | 521 kts | 290° |
| 2026-04-10 21:07 | 6.40366 | 99.61267 | 31884 ft | 522 kts | 291° |
| 2026-04-10 21:07 | 6.42922 | 99.54415 | 31884 ft | 522 kts | 291° |
| 2026-04-10 21:08 | 6.45450 | 99.47620 | 31879 ft | 522 kts | 291° |
| 2026-04-10 21:08 | 6.47997 | 99.40763 | 31881 ft | 523 kts | 290° |
| 2026-04-10 21:09 | 6.50542 | 99.33905 | 31883 ft | 523 kts | 290° |
| 2026-04-10 21:09 | 6.53090 | 99.27036 | 31882 ft | 523 kts | 290° |
| 2026-04-10 21:10 | 6.55618 | 99.20220 | 31885 ft | 523 kts | 290° |
| 2026-04-10 21:10 | 6.58164 | 99.13354 | 31884 ft | 523 kts | 290° |
| 2026-04-10 21:11 | 6.60706 | 99.06492 | 31884 ft | 524 kts | 291° |
| 2026-04-10 21:11 | 6.63253 | 98.99614 | 31882 ft | 524 kts | 291° |
| 2026-04-10 21:12 | 6.65783 | 98.92779 | 31881 ft | 524 kts | 291° |
| 2026-04-10 21:12 | 6.68326 | 98.85906 | 31877 ft | 524 kts | 291° |
| 2026-04-10 21:13 | 6.70858 | 98.79059 | 31883 ft | 524 kts | 290° |
| 2026-04-10 21:13 | 6.73399 | 98.72184 | 31879 ft | 524 kts | 290° |
| 2026-04-10 21:14 | 6.75927 | 98.65339 | 31883 ft | 519 kts | 291° |
| 2026-04-10 21:14 | 6.78449 | 98.58512 | 31880 ft | 521 kts | 291° |
| 2026-04-10 21:15 | 6.82228 | 98.48271 | 31879 ft | 522 kts | 291° |
| 2026-04-10 21:15 | 6.84752 | 98.41428 | 31879 ft | 522 kts | 291° |
| 2026-04-10 21:16 | 6.87281 | 98.34567 | 31876 ft | 522 kts | 291° |
| 2026-04-10 21:16 | 6.89779 | 98.27787 | 31877 ft | 518 kts | 291° |
| 2026-04-10 21:17 | 6.92285 | 98.20983 | 31876 ft | 518 kts | 291° |
| 2026-04-10 21:17 | 6.94798 | 98.14156 | 31878 ft | 519 kts | 291° |
| 2026-04-10 21:18 | 6.97307 | 98.07337 | 31879 ft | 519 kts | 291° |
| 2026-04-10 21:18 | 7.00462 | 98.00902 | 31880 ft | 516 kts | 307° |
| 2026-04-10 21:19 | 7.05567 | 97.95868 | 31884 ft | 514 kts | 325° |
| 2026-04-10 21:19 | 7.11358 | 97.91616 | 31879 ft | 515 kts | 324° |
| 2026-04-10 21:20 | 7.17131 | 97.87336 | 31879 ft | 515 kts | 324° |
| 2026-04-10 21:20 | 7.22874 | 97.83080 | 31878 ft | 515 kts | 324° |
| 2026-04-10 21:21 | 7.27672 | 97.79525 | 31878 ft | 514 kts | 324° |
| 2026-04-10 21:21 | 7.33452 | 97.75243 | 31878 ft | 515 kts | 324° |
| 2026-04-10 21:22 | 7.39230 | 97.70961 | 31878 ft | 515 kts | 324° |
| 2026-04-10 21:22 | 7.45008 | 97.66678 | 31878 ft | 515 kts | 324° |
| 2026-04-10 21:23 | 7.50736 | 97.62431 | 31879 ft | 514 kts | 324° |
| 2026-04-10 21:23 | 7.56510 | 97.58147 | 31878 ft | 515 kts | 324° |
| 2026-04-10 21:24 | 7.62290 | 97.53858 | 31878 ft | 515 kts | 324° |
| 2026-04-10 21:24 | 7.68067 | 97.49572 | 31878 ft | 515 kts | 324° |
| 2026-04-10 21:25 | 7.73807 | 97.45320 | 31879 ft | 515 kts | 324° |
| 2026-04-10 21:25 | 7.79587 | 97.41038 | 31878 ft | 515 kts | 324° |
| 2026-04-10 21:26 | 7.85365 | 97.36753 | 31875 ft | 515 kts | 324° |
| 2026-04-10 21:26 | 7.91111 | 97.32492 | 31876 ft | 515 kts | 324° |
| 2026-04-10 21:27 | 7.96892 | 97.28203 | 31876 ft | 515 kts | 324° |
| 2026-04-10 21:27 | 8.02620 | 97.23862 | 31875 ft | 515 kts | 320° |
| 2026-04-10 21:28 | 8.07503 | 97.18571 | 31876 ft | 517 kts | 307° |
| 2026-04-10 21:28 | 8.11325 | 97.12414 | 31881 ft | 517 kts | 302° |
| 2026-04-10 21:29 | 8.15046 | 97.06236 | 31878 ft | 517 kts | 302° |
| 2026-04-10 21:29 | 8.18788 | 97.00024 | 31878 ft | 517 kts | 302° |
| 2026-04-10 21:30 | 8.22522 | 96.93813 | 31881 ft | 517 kts | 302° |
| 2026-04-10 21:30 | 8.26256 | 96.87596 | 31881 ft | 517 kts | 302° |
| 2026-04-10 21:31 | 8.29968 | 96.81413 | 31878 ft | 517 kts | 302° |
| 2026-04-10 21:31 | 8.33695 | 96.75202 | 31878 ft | 517 kts | 302° |
| 2026-04-10 21:32 | 8.37418 | 96.68995 | 31878 ft | 517 kts | 302° |
| 2026-04-10 21:32 | 8.41128 | 96.62806 | 31879 ft | 517 kts | 302° |
| 2026-04-10 21:33 | 8.44857 | 96.56583 | 31881 ft | 517 kts | 302° |
| 2026-04-10 21:33 | 8.48580 | 96.50367 | 31881 ft | 517 kts | 302° |
| 2026-04-10 21:34 | 8.52302 | 96.44151 | 31881 ft | 516 kts | 302° |
| 2026-04-10 21:34 | 8.56008 | 96.37958 | 31881 ft | 515 kts | 302° |
| 2026-04-10 21:35 | 8.59718 | 96.31756 | 31881 ft | 516 kts | 302° |
| 2026-04-10 21:35 | 8.63413 | 96.25576 | 31881 ft | 516 kts | 302° |
| 2026-04-10 21:36 | 8.67126 | 96.19363 | 31878 ft | 516 kts | 302° |
| 2026-04-10 21:36 | 8.70837 | 96.13150 | 31881 ft | 516 kts | 302° |
| 2026-04-10 21:37 | 8.74543 | 96.06942 | 31881 ft | 515 kts | 302° |
| 2026-04-10 21:37 | 8.78242 | 96.00743 | 31881 ft | 515 kts | 302° |
| 2026-04-10 21:38 | 8.81942 | 95.94532 | 31881 ft | 515 kts | 302° |
| 2026-04-10 21:38 | 8.85638 | 95.88326 | 31881 ft | 515 kts | 302° |
| 2026-04-10 21:39 | 8.89311 | 95.82156 | 31884 ft | 515 kts | 302° |
| 2026-04-10 21:39 | 8.93012 | 95.75935 | 31883 ft | 515 kts | 302° |
| 2026-04-10 21:40 | 8.96711 | 95.69714 | 31883 ft | 515 kts | 302° |
| 2026-04-10 21:40 | 9.00400 | 95.63508 | 31884 ft | 515 kts | 302° |
| 2026-04-10 21:41 | 9.04070 | 95.57331 | 31884 ft | 515 kts | 302° |
| 2026-04-10 21:41 | 9.07766 | 95.51108 | 31883 ft | 516 kts | 302° |
| 2026-04-10 21:42 | 9.11479 | 95.44851 | 32391 ft | 518 kts | 302° |
| 2026-04-10 21:42 | 9.13334 | 95.41725 | 32848 ft | 517 kts | 302° |
| 2026-04-10 21:42 | 9.15186 | 95.38603 | 33307 ft | 515 kts | 302° |
| 2026-04-10 21:43 | 9.17025 | 95.35501 | 33740 ft | 514 kts | 302° |
| 2026-04-10 21:43 | 9.18839 | 95.32440 | 33866 ft | 511 kts | 302° |
| 2026-04-10 21:43 | 9.22489 | 95.26281 | 33888 ft | 509 kts | 302° |
| 2026-04-10 21:44 | 9.26142 | 95.20116 | 33885 ft | 509 kts | 302° |
| 2026-04-10 21:44 | 9.29762 | 95.14002 | 33885 ft | 509 kts | 302° |
| 2026-04-10 21:45 | 9.33405 | 95.07846 | 33886 ft | 509 kts | 302° |
| 2026-04-10 21:45 | 9.37049 | 95.01685 | 33886 ft | 509 kts | 302° |
| 2026-04-10 21:46 | 9.40688 | 94.95529 | 33889 ft | 509 kts | 302° |
| 2026-04-10 21:46 | 9.44331 | 94.89364 | 33881 ft | 510 kts | 302° |
| 2026-04-10 21:47 | 9.47953 | 94.83231 | 33887 ft | 510 kts | 302° |
| 2026-04-10 21:47 | 9.51601 | 94.77050 | 33888 ft | 510 kts | 302° |
| 2026-04-10 21:48 | 9.55245 | 94.70874 | 33886 ft | 511 kts | 302° |
| 2026-04-10 21:48 | 9.58873 | 94.64722 | 33887 ft | 511 kts | 302° |
| 2026-04-10 21:49 | 9.62526 | 94.58523 | 33882 ft | 511 kts | 302° |
| 2026-04-10 21:49 | 9.66170 | 94.52337 | 33883 ft | 511 kts | 302° |
| 2026-04-10 21:50 | 9.69802 | 94.46182 | 33881 ft | 510 kts | 303° |
| 2026-04-10 21:50 | 9.74128 | 94.40517 | 33900 ft | 508 kts | 315° |
| 2026-04-10 21:51 | 9.79373 | 94.35724 | 33885 ft | 507 kts | 321° |
| 2026-04-10 21:51 | 9.84719 | 94.31124 | 33881 ft | 507 kts | 321° |
| 2026-04-10 21:52 | 9.90113 | 94.26469 | 33897 ft | 508 kts | 321° |
| 2026-04-10 21:52 | 9.95499 | 94.21827 | 33902 ft | 508 kts | 321° |
| 2026-04-10 21:53 | 10.00861 | 94.17206 | 33903 ft | 508 kts | 321° |
| 2026-04-10 21:53 | 10.06262 | 94.12548 | 33898 ft | 509 kts | 320° |
| 2026-04-10 21:54 | 10.11661 | 94.07890 | 33898 ft | 508 kts | 320° |
| 2026-04-10 21:54 | 10.17047 | 94.03242 | 33900 ft | 508 kts | 320° |
| 2026-04-10 21:55 | 10.22410 | 93.98612 | 33875 ft | 508 kts | 320° |
| 2026-04-10 21:55 | 10.27811 | 93.93946 | 33887 ft | 509 kts | 320° |
| 2026-04-10 21:56 | 10.33213 | 93.89277 | 33894 ft | 509 kts | 320° |
| 2026-04-10 21:56 | 10.38610 | 93.84610 | 33897 ft | 510 kts | 320° |
| 2026-04-10 21:57 | 10.43984 | 93.79961 | 33881 ft | 510 kts | 320° |
| 2026-04-10 21:57 | 10.49390 | 93.75282 | 33893 ft | 510 kts | 320° |
| 2026-04-10 21:58 | 10.54797 | 93.70600 | 33894 ft | 510 kts | 320° |
| 2026-04-10 21:58 | 10.60205 | 93.65915 | 33895 ft | 510 kts | 320° |
| 2026-04-10 21:59 | 10.65577 | 93.61259 | 33895 ft | 511 kts | 320° |
| 2026-04-10 21:59 | 10.70986 | 93.56568 | 33897 ft | 511 kts | 320° |
| 2026-04-10 22:00 | 10.76400 | 93.51871 | 33899 ft | 511 kts | 320° |
| 2026-04-10 22:00 | 10.81819 | 93.47168 | 33899 ft | 511 kts | 320° |
| 2026-04-10 22:01 | 10.87186 | 93.42506 | 33897 ft | 511 kts | 320° |
| 2026-04-10 22:01 | 10.92593 | 93.37809 | 33894 ft | 511 kts | 320° |
| 2026-04-10 22:02 | 10.98003 | 93.33106 | 33893 ft | 511 kts | 320° |
| 2026-04-10 22:02 | 11.03418 | 93.28397 | 33894 ft | 511 kts | 320° |
| 2026-04-10 22:03 | 11.08789 | 93.23723 | 33895 ft | 511 kts | 320° |
| 2026-04-10 22:03 | 11.14201 | 93.19011 | 33896 ft | 511 kts | 320° |
| 2026-04-10 22:04 | 11.19613 | 93.14297 | 33898 ft | 511 kts | 320° |
| 2026-04-10 22:04 | 11.24984 | 93.09616 | 33899 ft | 511 kts | 320° |
| 2026-04-10 22:05 | 11.30382 | 93.04910 | 33901 ft | 511 kts | 320° |
| 2026-04-10 22:05 | 11.35781 | 93.00200 | 33902 ft | 510 kts | 320° |
| 2026-04-10 22:06 | 11.41172 | 92.95495 | 33902 ft | 510 kts | 320° |
| 2026-04-10 22:06 | 11.46560 | 92.90789 | 33900 ft | 510 kts | 320° |
| 2026-04-10 22:07 | 11.51921 | 92.86105 | 33921 ft | 509 kts | 320° |
| 2026-04-10 22:08 | 11.59995 | 92.79046 | 33933 ft | 509 kts | 320° |
| 2026-04-10 22:08 | 11.65323 | 92.74275 | 33932 ft | 509 kts | 316° |
| 2026-04-10 22:09 | 11.70168 | 92.68994 | 33935 ft | 509 kts | 313° |
| 2026-04-10 22:09 | 11.74984 | 92.63737 | 33931 ft | 510 kts | 314° |
| 2026-04-10 22:10 | 11.79843 | 92.58433 | 33931 ft | 510 kts | 314° |
| 2026-04-10 22:10 | 11.84690 | 92.53136 | 33932 ft | 511 kts | 314° |
| 2026-04-10 22:11 | 11.88724 | 92.48722 | 33913 ft | 511 kts | 314° |
| 2026-04-10 22:11 | 11.93576 | 92.43409 | 33913 ft | 511 kts | 314° |
| 2026-04-10 22:12 | 11.98427 | 92.38096 | 33909 ft | 511 kts | 314° |
| 2026-04-10 22:12 | 12.03251 | 92.32808 | 33913 ft | 511 kts | 314° |
| 2026-04-10 22:13 | 12.08096 | 92.27495 | 33914 ft | 510 kts | 314° |
| 2026-04-10 22:13 | 12.12934 | 92.22186 | 33912 ft | 509 kts | 314° |
| 2026-04-10 22:14 | 12.17749 | 92.16899 | 33905 ft | 508 kts | 314° |
| 2026-04-10 22:14 | 12.22562 | 92.11611 | 33891 ft | 507 kts | 314° |
| 2026-04-10 22:15 | 12.27338 | 92.06362 | 33894 ft | 507 kts | 314° |
| 2026-04-10 22:15 | 12.32145 | 92.01075 | 33899 ft | 506 kts | 314° |
| 2026-04-10 22:16 | 12.36940 | 91.95798 | 33899 ft | 506 kts | 314° |
| 2026-04-10 22:16 | 12.41711 | 91.90545 | 33899 ft | 507 kts | 314° |
| 2026-04-10 22:17 | 12.46516 | 91.85251 | 33909 ft | 506 kts | 314° |
| 2026-04-10 22:17 | 12.51281 | 91.79999 | 33904 ft | 506 kts | 314° |
| 2026-04-10 22:18 | 12.56076 | 91.74709 | 33905 ft | 505 kts | 314° |
| 2026-04-10 22:18 | 12.60863 | 91.69426 | 33900 ft | 505 kts | 314° |
| 2026-04-10 22:19 | 12.65642 | 91.64149 | 33901 ft | 505 kts | 314° |
| 2026-04-10 22:19 | 12.70389 | 91.58903 | 33904 ft | 505 kts | 314° |
| 2026-04-10 22:20 | 12.75175 | 91.53612 | 33905 ft | 505 kts | 314° |
| 2026-04-10 22:20 | 12.79952 | 91.48328 | 33901 ft | 506 kts | 313° |
| 2026-04-10 22:21 | 12.84740 | 91.43027 | 33904 ft | 506 kts | 313° |
| 2026-04-10 22:21 | 12.89526 | 91.37726 | 33908 ft | 506 kts | 313° |
| 2026-04-10 22:22 | 12.94314 | 91.32419 | 33915 ft | 507 kts | 313° |
| 2026-04-10 22:22 | 12.99072 | 91.27142 | 33913 ft | 507 kts | 313° |
| 2026-04-10 22:23 | 13.03874 | 91.21814 | 33916 ft | 507 kts | 313° |
| 2026-04-10 22:23 | 13.08666 | 91.16493 | 33916 ft | 507 kts | 313° |
| 2026-04-10 22:24 | 13.13426 | 91.11205 | 33914 ft | 507 kts | 313° |
| 2026-04-10 22:24 | 13.18213 | 91.05884 | 33913 ft | 507 kts | 313° |
| 2026-04-10 22:25 | 13.23001 | 91.00557 | 33914 ft | 507 kts | 313° |
| 2026-04-10 22:25 | 13.27795 | 90.95220 | 33912 ft | 507 kts | 313° |
| 2026-04-10 22:26 | 13.32546 | 90.89930 | 33914 ft | 507 kts | 313° |
| 2026-04-10 22:26 | 13.37334 | 90.84592 | 33909 ft | 507 kts | 313° |
| 2026-04-10 22:27 | 13.42123 | 90.79253 | 33909 ft | 507 kts | 313° |
| 2026-04-10 22:27 | 13.46873 | 90.73952 | 33920 ft | 506 kts | 313° |
| 2026-04-10 22:28 | 13.51642 | 90.68626 | 33938 ft | 504 kts | 313° |
| 2026-04-10 22:28 | 13.56364 | 90.63351 | 33924 ft | 503 kts | 313° |
| 2026-04-10 22:29 | 13.61091 | 90.58066 | 33917 ft | 501 kts | 313° |
| 2026-04-10 22:29 | 13.65807 | 90.52790 | 33906 ft | 500 kts | 313° |
| 2026-04-10 22:30 | 13.70521 | 90.47513 | 33900 ft | 500 kts | 313° |
| 2026-04-10 22:30 | 13.75226 | 90.42242 | 33894 ft | 499 kts | 313° |
| 2026-04-10 22:31 | 13.79925 | 90.36975 | 33902 ft | 499 kts | 314° |
| 2026-04-10 22:31 | 13.84589 | 90.31744 | 33907 ft | 499 kts | 314° |
| 2026-04-10 22:32 | 13.89276 | 90.26485 | 33920 ft | 497 kts | 313° |
| 2026-04-10 22:32 | 13.93958 | 90.21227 | 33911 ft | 497 kts | 313° |
| 2026-04-10 22:33 | 13.98606 | 90.16003 | 33909 ft | 497 kts | 313° |
| 2026-04-10 22:33 | 14.03272 | 90.10756 | 33906 ft | 496 kts | 313° |
| 2026-04-10 22:34 | 14.07943 | 90.05500 | 33903 ft | 496 kts | 313° |
| 2026-04-10 22:34 | 14.12579 | 90.00280 | 33904 ft | 496 kts | 313° |
| 2026-04-10 22:35 | 14.17250 | 89.95018 | 33908 ft | 496 kts | 313° |
| 2026-04-10 22:35 | 14.21915 | 89.89759 | 33908 ft | 496 kts | 313° |
| 2026-04-10 22:36 | 14.26549 | 89.84532 | 33910 ft | 496 kts | 313° |
| 2026-04-10 22:36 | 14.31207 | 89.79273 | 33908 ft | 496 kts | 313° |
| 2026-04-10 22:37 | 14.35854 | 89.74023 | 33911 ft | 495 kts | 313° |
| 2026-04-10 22:37 | 14.40505 | 89.68766 | 33903 ft | 495 kts | 313° |
| 2026-04-10 22:38 | 14.45129 | 89.63536 | 33904 ft | 495 kts | 313° |
| 2026-04-10 22:38 | 14.49782 | 89.58268 | 33902 ft | 495 kts | 313° |
| 2026-04-10 22:39 | 14.54401 | 89.53037 | 33899 ft | 495 kts | 313° |
| 2026-04-10 22:39 | 14.59047 | 89.47771 | 33908 ft | 495 kts | 313° |
| 2026-04-10 22:40 | 14.63688 | 89.42509 | 33907 ft | 495 kts | 313° |
| 2026-04-10 22:40 | 14.68319 | 89.37255 | 33901 ft | 495 kts | 313° |
| 2026-04-10 22:41 | 14.72929 | 89.32021 | 33910 ft | 494 kts | 313° |
| 2026-04-10 22:41 | 14.77666 | 89.26842 | 33905 ft | 494 kts | 315° |
| 2026-04-10 22:42 | 14.82495 | 89.21762 | 33894 ft | 494 kts | 315° |
| 2026-04-10 22:42 | 14.87271 | 89.16697 | 33892 ft | 494 kts | 314° |
| 2026-04-10 22:43 | 14.92057 | 89.11596 | 33886 ft | 494 kts | 314° |
| 2026-04-10 22:43 | 14.96852 | 89.06479 | 33917 ft | 494 kts | 314° |
| 2026-04-10 22:44 | 15.01630 | 89.01375 | 33915 ft | 493 kts | 314° |
| 2026-04-10 22:44 | 15.06373 | 88.96304 | 33916 ft | 493 kts | 314° |
| 2026-04-10 22:45 | 15.11155 | 88.91190 | 33899 ft | 493 kts | 314° |
| 2026-04-10 22:45 | 15.15890 | 88.86123 | 33894 ft | 492 kts | 314° |
| 2026-04-10 22:46 | 15.20659 | 88.81015 | 33901 ft | 492 kts | 314° |
| 2026-04-10 22:46 | 15.25424 | 88.75908 | 33901 ft | 492 kts | 314° |
| 2026-04-10 22:47 | 15.30181 | 88.70806 | 33916 ft | 491 kts | 314° |
| 2026-04-10 22:47 | 15.34906 | 88.65735 | 33919 ft | 491 kts | 314° |
| 2026-04-10 22:48 | 15.39662 | 88.60628 | 33913 ft | 491 kts | 314° |
| 2026-04-10 22:48 | 15.44411 | 88.55524 | 33903 ft | 491 kts | 314° |
| 2026-04-10 22:49 | 15.49134 | 88.50445 | 33898 ft | 492 kts | 314° |
| 2026-04-10 22:49 | 15.53881 | 88.45335 | 33901 ft | 491 kts | 314° |
| 2026-04-10 22:50 | 15.58627 | 88.40224 | 33907 ft | 491 kts | 314° |
| 2026-04-10 22:50 | 15.63371 | 88.35110 | 33922 ft | 491 kts | 314° |
| 2026-04-10 22:51 | 15.68078 | 88.30035 | 33927 ft | 490 kts | 314° |
| 2026-04-10 22:51 | 15.72803 | 88.24934 | 33924 ft | 489 kts | 314° |
| 2026-04-10 22:52 | 15.77523 | 88.19837 | 33908 ft | 489 kts | 314° |
| 2026-04-10 22:52 | 15.82239 | 88.14739 | 33899 ft | 489 kts | 314° |
| 2026-04-10 22:53 | 15.86955 | 88.09638 | 33901 ft | 488 kts | 314° |
| 2026-04-10 22:53 | 15.91635 | 88.04573 | 33898 ft | 488 kts | 313° |
| 2026-04-10 22:54 | 15.96348 | 87.99468 | 33904 ft | 489 kts | 313° |
| 2026-04-10 22:54 | 16.01054 | 87.94367 | 33906 ft | 489 kts | 313° |
| 2026-04-10 22:55 | 16.05761 | 87.89261 | 33919 ft | 488 kts | 313° |
| 2026-04-10 22:55 | 16.10431 | 87.84191 | 33905 ft | 488 kts | 313° |
| 2026-04-10 22:56 | 16.15142 | 87.79073 | 33911 ft | 488 kts | 313° |
| 2026-04-10 22:56 | 16.19832 | 87.73974 | 33903 ft | 487 kts | 313° |
| 2026-04-10 22:57 | 16.24489 | 87.68908 | 33894 ft | 487 kts | 313° |
| 2026-04-10 22:57 | 16.29184 | 87.63796 | 33898 ft | 488 kts | 313° |
| 2026-04-10 22:58 | 16.33874 | 87.58686 | 33900 ft | 488 kts | 313° |
| 2026-04-10 22:58 | 16.37772 | 87.54437 | 33903 ft | 488 kts | 313° |
| 2026-04-10 22:59 | 16.43221 | 87.48491 | 33904 ft | 488 kts | 313° |
| 2026-04-10 22:59 | 16.47156 | 87.44195 | 33906 ft | 488 kts | 313° |
| 2026-04-10 23:00 | 16.51818 | 87.39100 | 33906 ft | 488 kts | 313° |
| 2026-04-10 23:00 | 16.56502 | 87.33979 | 33906 ft | 488 kts | 313° |
| 2026-04-10 23:01 | 16.61192 | 87.28846 | 33901 ft | 488 kts | 313° |
| 2026-04-10 23:01 | 16.65873 | 87.23720 | 33896 ft | 488 kts | 313° |
| 2026-04-10 23:02 | 16.70530 | 87.18615 | 33904 ft | 488 kts | 311° |
| 2026-04-10 23:02 | 16.74688 | 87.13031 | 33903 ft | 486 kts | 302° |
| 2026-04-10 23:03 | 16.77990 | 87.06870 | 33901 ft | 486 kts | 298° |
| 2026-04-10 23:03 | 16.81214 | 87.00707 | 33901 ft | 486 kts | 298° |
| 2026-04-10 23:04 | 16.84452 | 86.94519 | 33896 ft | 486 kts | 298° |
| 2026-04-10 23:04 | 16.87690 | 86.88310 | 33894 ft | 486 kts | 298° |
| 2026-04-10 23:05 | 16.90916 | 86.82112 | 33898 ft | 486 kts | 298° |
| 2026-04-10 23:05 | 16.94130 | 86.75933 | 33900 ft | 487 kts | 298° |
| 2026-04-10 23:06 | 16.97358 | 86.69722 | 33902 ft | 487 kts | 298° |
| 2026-04-10 23:06 | 17.00586 | 86.63505 | 33904 ft | 487 kts | 298° |
| 2026-04-10 23:07 | 17.03814 | 86.57284 | 33904 ft | 486 kts | 297° |
| 2026-04-10 23:07 | 17.07036 | 86.51067 | 33903 ft | 486 kts | 297° |
| 2026-04-10 23:08 | 17.10252 | 86.44853 | 33898 ft | 485 kts | 297° |
| 2026-04-10 23:08 | 17.13440 | 86.38690 | 33900 ft | 485 kts | 297° |
| 2026-04-10 23:09 | 17.16654 | 86.32472 | 33891 ft | 485 kts | 297° |
| 2026-04-10 23:09 | 17.21443 | 86.23194 | 33891 ft | 485 kts | 297° |
| 2026-04-10 23:10 | 17.24647 | 86.16978 | 33884 ft | 485 kts | 297° |
| 2026-04-10 23:10 | 17.27849 | 86.10763 | 33888 ft | 485 kts | 297° |
| 2026-04-10 23:11 | 17.31055 | 86.04532 | 33894 ft | 486 kts | 297° |
| 2026-04-10 23:11 | 17.34259 | 85.98300 | 33898 ft | 486 kts | 297° |
| 2026-04-10 23:12 | 17.37466 | 85.92058 | 33902 ft | 486 kts | 297° |
| 2026-04-10 23:12 | 17.40654 | 85.85843 | 33906 ft | 486 kts | 297° |
| 2026-04-10 23:13 | 17.43849 | 85.79611 | 33903 ft | 485 kts | 297° |
| 2026-04-10 23:13 | 17.47036 | 85.73388 | 33898 ft | 485 kts | 297° |
| 2026-04-10 23:14 | 17.50204 | 85.67197 | 33890 ft | 484 kts | 297° |
| 2026-04-10 23:14 | 17.53382 | 85.60980 | 33888 ft | 484 kts | 297° |
| 2026-04-10 23:15 | 17.56560 | 85.54757 | 33890 ft | 484 kts | 297° |
| 2026-04-10 23:15 | 17.59736 | 85.48532 | 33888 ft | 484 kts | 297° |
| 2026-04-10 23:16 | 17.62890 | 85.42345 | 33890 ft | 484 kts | 297° |
| 2026-04-10 23:16 | 17.66065 | 85.36110 | 33886 ft | 484 kts | 297° |
| 2026-04-10 23:17 | 17.69243 | 85.29862 | 33889 ft | 485 kts | 297° |
| 2026-04-10 23:17 | 17.72422 | 85.23608 | 33894 ft | 485 kts | 297° |
| 2026-04-10 23:18 | 17.75592 | 85.17364 | 33895 ft | 485 kts | 297° |
| 2026-04-10 23:18 | 17.78762 | 85.11115 | 33897 ft | 485 kts | 297° |
| 2026-04-10 23:19 | 17.81906 | 85.04909 | 33897 ft | 485 kts | 297° |
| 2026-04-10 23:19 | 17.85078 | 84.98643 | 33891 ft | 485 kts | 297° |
| 2026-04-10 23:20 | 17.88246 | 84.92380 | 33894 ft | 485 kts | 297° |
| 2026-04-10 23:20 | 17.91392 | 84.86152 | 33893 ft | 485 kts | 297° |
| 2026-04-10 23:21 | 17.94552 | 84.79891 | 33893 ft | 485 kts | 296° |
| 2026-04-10 23:21 | 17.97713 | 84.73622 | 33890 ft | 485 kts | 296° |
| 2026-04-10 23:22 | 18.00874 | 84.67348 | 33894 ft | 485 kts | 296° |
| 2026-04-10 23:22 | 18.04010 | 84.61116 | 33905 ft | 485 kts | 296° |
| 2026-04-10 23:23 | 18.07161 | 84.54849 | 33898 ft | 484 kts | 296° |
| 2026-04-10 23:23 | 18.10306 | 84.48586 | 33895 ft | 484 kts | 296° |
| 2026-04-10 23:24 | 18.13445 | 84.42329 | 33892 ft | 483 kts | 296° |
| 2026-04-10 23:24 | 18.16563 | 84.36109 | 33889 ft | 483 kts | 296° |
| 2026-04-10 23:25 | 18.19694 | 84.29856 | 33887 ft | 483 kts | 296° |
| 2026-04-10 23:25 | 18.22823 | 84.23601 | 33883 ft | 483 kts | 296° |
| 2026-04-10 23:26 | 18.25958 | 84.17335 | 33884 ft | 483 kts | 297° |
| 2026-04-10 23:26 | 18.30073 | 84.11788 | 33884 ft | 488 kts | 316° |
| 2026-04-10 23:27 | 18.35827 | 84.07948 | 33896 ft | 494 kts | 332° |
| 2026-04-10 23:27 | 18.42066 | 84.04869 | 33897 ft | 494 kts | 332° |
| 2026-04-10 23:28 | 18.48293 | 84.01763 | 33901 ft | 495 kts | 332° |
| 2026-04-10 23:28 | 18.54521 | 83.98658 | 33900 ft | 495 kts | 332° |
| 2026-04-10 23:29 | 18.60712 | 83.95572 | 33902 ft | 495 kts | 332° |
| 2026-04-10 23:29 | 18.66946 | 83.92462 | 33909 ft | 494 kts | 332° |
| 2026-04-10 23:30 | 18.73165 | 83.89357 | 33902 ft | 495 kts | 332° |
| 2026-04-10 23:30 | 18.79398 | 83.86242 | 33907 ft | 494 kts | 332° |
| 2026-04-10 23:31 | 18.85615 | 83.83133 | 33906 ft | 494 kts | 332° |
| 2026-04-10 23:31 | 18.91810 | 83.80032 | 33912 ft | 494 kts | 332° |
| 2026-04-10 23:32 | 18.98035 | 83.76914 | 33912 ft | 495 kts | 332° |
| 2026-04-10 23:32 | 19.04222 | 83.73812 | 33918 ft | 495 kts | 332° |
| 2026-04-10 23:33 | 19.10455 | 83.70684 | 33918 ft | 495 kts | 332° |
| 2026-04-10 23:33 | 19.16671 | 83.67563 | 33924 ft | 494 kts | 332° |
| 2026-04-10 23:34 | 19.22854 | 83.64455 | 33918 ft | 494 kts | 332° |
| 2026-04-10 23:34 | 19.29066 | 83.61330 | 33918 ft | 494 kts | 332° |
| 2026-04-10 23:35 | 19.35276 | 83.58204 | 33935 ft | 494 kts | 331° |
| 2026-04-10 23:35 | 19.41488 | 83.55074 | 33927 ft | 494 kts | 331° |
| 2026-04-10 23:36 | 19.47695 | 83.51943 | 33919 ft | 493 kts | 331° |
| 2026-04-10 23:36 | 19.53856 | 83.48834 | 33918 ft | 493 kts | 331° |
| 2026-04-10 23:37 | 19.60070 | 83.45694 | 33925 ft | 494 kts | 331° |
| 2026-04-10 23:37 | 19.66285 | 83.42551 | 33927 ft | 494 kts | 331° |
| 2026-04-10 23:38 | 19.72459 | 83.39427 | 33936 ft | 494 kts | 331° |
| 2026-04-10 23:38 | 19.78669 | 83.36283 | 33932 ft | 493 kts | 331° |
| 2026-04-10 23:39 | 19.84864 | 83.33142 | 33921 ft | 493 kts | 331° |
| 2026-04-10 23:39 | 19.91030 | 83.30014 | 33914 ft | 493 kts | 331° |
| 2026-04-10 23:40 | 19.97231 | 83.26865 | 33900 ft | 492 kts | 331° |
| 2026-04-10 23:40 | 20.03421 | 83.23719 | 33905 ft | 492 kts | 331° |
| 2026-04-10 23:41 | 20.09560 | 83.20596 | 33895 ft | 491 kts | 331° |
| 2026-04-10 23:41 | 20.15741 | 83.17449 | 33899 ft | 491 kts | 331° |
| 2026-04-10 23:42 | 20.21918 | 83.14301 | 33895 ft | 491 kts | 331° |
| 2026-04-10 23:42 | 20.28051 | 83.11173 | 33897 ft | 491 kts | 331° |
| 2026-04-10 23:43 | 20.34223 | 83.08023 | 33899 ft | 491 kts | 331° |
| 2026-04-10 23:43 | 20.40393 | 83.04870 | 33905 ft | 491 kts | 331° |
| 2026-04-10 23:44 | 20.46527 | 83.01733 | 33900 ft | 491 kts | 331° |
| 2026-04-10 23:44 | 20.52692 | 82.98578 | 33901 ft | 490 kts | 330° |
| 2026-04-10 23:45 | 20.58492 | 82.94822 | 33912 ft | 485 kts | 320° |
| 2026-04-10 23:45 | 20.63501 | 82.90034 | 33905 ft | 481 kts | 311° |
| 2026-04-10 23:46 | 20.68120 | 82.84921 | 33922 ft | 481 kts | 311° |
| 2026-04-10 23:46 | 20.72780 | 82.79798 | 33913 ft | 481 kts | 311° |
| 2026-04-10 23:47 | 20.77440 | 82.74652 | 33910 ft | 480 kts | 311° |
| 2026-04-10 23:47 | 20.81302 | 82.70379 | 33911 ft | 480 kts | 311° |
| 2026-04-10 23:48 | 20.85950 | 82.65232 | 33911 ft | 480 kts | 311° |
| 2026-04-10 23:48 | 20.90604 | 82.60074 | 33911 ft | 481 kts | 311° |
| 2026-04-10 23:49 | 20.95237 | 82.54970 | 33915 ft | 481 kts | 311° |
| 2026-04-10 23:49 | 20.99902 | 82.49840 | 33918 ft | 480 kts | 311° |
| 2026-04-10 23:50 | 21.04563 | 82.44702 | 33928 ft | 480 kts | 311° |
| 2026-04-10 23:50 | 21.09188 | 82.39597 | 33922 ft | 479 kts | 311° |
| 2026-04-10 23:51 | 21.13836 | 82.34463 | 33930 ft | 479 kts | 311° |
| 2026-04-10 23:51 | 21.18469 | 82.29340 | 33934 ft | 478 kts | 311° |
| 2026-04-10 23:52 | 21.23070 | 82.24247 | 33909 ft | 478 kts | 311° |
| 2026-04-10 23:52 | 21.27703 | 82.19114 | 33906 ft | 479 kts | 311° |
| 2026-04-10 23:53 | 21.32343 | 82.13969 | 33943 ft | 478 kts | 311° |
| 2026-04-10 23:53 | 21.36962 | 82.08842 | 33932 ft | 476 kts | 310° |
| 2026-04-10 23:54 | 21.41536 | 82.03760 | 33921 ft | 475 kts | 310° |
| 2026-04-10 23:54 | 21.46136 | 81.98649 | 33914 ft | 474 kts | 311° |
| 2026-04-10 23:55 | 21.50811 | 81.93640 | 33911 ft | 474 kts | 312° |
| 2026-04-10 23:55 | 21.55468 | 81.88678 | 33910 ft | 474 kts | 311° |
| 2026-04-10 23:56 | 21.60142 | 81.83671 | 33919 ft | 474 kts | 311° |
| 2026-04-10 23:56 | 21.64813 | 81.78652 | 33936 ft | 474 kts | 311° |
| 2026-04-10 23:57 | 21.69480 | 81.73633 | 33933 ft | 474 kts | 311° |
| 2026-04-10 23:57 | 21.74135 | 81.68622 | 33929 ft | 473 kts | 311° |
| 2026-04-10 23:58 | 21.78765 | 81.63634 | 33923 ft | 473 kts | 311° |
| 2026-04-10 23:58 | 21.83361 | 81.58560 | 33925 ft | 473 kts | 310° |
| 2026-04-10 23:59 | 21.87925 | 81.53465 | 33931 ft | 473 kts | 310° |
| 2026-04-10 23:59 | 21.92514 | 81.48358 | 33940 ft | 474 kts | 310° |
| 2026-04-11 00:00 | 21.97071 | 81.43225 | 33945 ft | 474 kts | 310° |
| 2026-04-11 00:00 | 22.01603 | 81.38068 | 33949 ft | 474 kts | 310° |
| 2026-04-11 00:01 | 22.06145 | 81.32905 | 33955 ft | 474 kts | 310° |
| 2026-04-11 00:01 | 22.10694 | 81.27738 | 33949 ft | 474 kts | 310° |
| 2026-04-11 00:02 | 22.15258 | 81.22641 | 33944 ft | 475 kts | 311° |
| 2026-04-11 00:02 | 22.19873 | 81.17509 | 33963 ft | 476 kts | 310° |
| 2026-04-11 00:03 | 22.24488 | 81.12358 | 33980 ft | 477 kts | 310° |
| 2026-04-11 00:03 | 22.29093 | 81.07207 | 33983 ft | 476 kts | 310° |
| 2026-04-11 00:04 | 22.33669 | 81.02085 | 33988 ft | 476 kts | 310° |
| 2026-04-11 00:04 | 22.38273 | 80.96927 | 33982 ft | 476 kts | 310° |
| 2026-04-11 00:05 | 22.42867 | 80.91773 | 33983 ft | 475 kts | 310° |
| 2026-04-11 00:05 | 22.47451 | 80.86626 | 33994 ft | 474 kts | 310° |
| 2026-04-11 00:06 | 22.51994 | 80.81519 | 34002 ft | 474 kts | 310° |
| 2026-04-11 00:06 | 22.56560 | 80.76381 | 34004 ft | 472 kts | 310° |
| 2026-04-11 00:07 | 22.61112 | 80.71255 | 33993 ft | 471 kts | 310° |
| 2026-04-11 00:07 | 22.65660 | 80.66126 | 33985 ft | 470 kts | 310° |
| 2026-04-11 00:08 | 22.70156 | 80.61052 | 33980 ft | 469 kts | 310° |
| 2026-04-11 00:08 | 22.74687 | 80.55933 | 33973 ft | 469 kts | 310° |
| 2026-04-11 00:09 | 22.79200 | 80.50828 | 33973 ft | 469 kts | 310° |
| 2026-04-11 00:09 | 22.83709 | 80.45724 | 33987 ft | 469 kts | 310° |
| 2026-04-11 00:10 | 22.88218 | 80.40614 | 33992 ft | 468 kts | 310° |
| 2026-04-11 00:10 | 22.92695 | 80.35535 | 33986 ft | 468 kts | 310° |
| 2026-04-11 00:11 | 22.99455 | 80.27857 | 33979 ft | 468 kts | 310° |
| 2026-04-11 00:12 | 23.03950 | 80.22744 | 33976 ft | 468 kts | 310° |
| 2026-04-11 00:12 | 23.08419 | 80.17655 | 33981 ft | 468 kts | 310° |
| 2026-04-11 00:13 | 23.12923 | 80.12523 | 33993 ft | 468 kts | 310° |
| 2026-04-11 00:13 | 23.17351 | 80.07357 | 33983 ft | 465 kts | 306° |
| 2026-04-11 00:14 | 23.21023 | 80.01647 | 33981 ft | 461 kts | 297° |
| 2026-04-11 00:14 | 23.24300 | 79.95650 | 33976 ft | 461 kts | 298° |
| 2026-04-11 00:15 | 23.27596 | 79.89677 | 33976 ft | 460 kts | 298° |
| 2026-04-11 00:15 | 23.30888 | 79.83691 | 33975 ft | 460 kts | 298° |
| 2026-04-11 00:16 | 23.34147 | 79.77747 | 33968 ft | 460 kts | 298° |
| 2026-04-11 00:16 | 23.37430 | 79.71754 | 33972 ft | 461 kts | 298° |
| 2026-04-11 00:17 | 23.40717 | 79.65746 | 33989 ft | 461 kts | 298° |
| 2026-04-11 00:17 | 23.43994 | 79.59748 | 33996 ft | 460 kts | 298° |
| 2026-04-11 00:18 | 23.47247 | 79.53787 | 33990 ft | 459 kts | 298° |
| 2026-04-11 00:18 | 23.50507 | 79.47808 | 33984 ft | 458 kts | 298° |
| 2026-04-11 00:19 | 23.53761 | 79.41830 | 33976 ft | 458 kts | 298° |
| 2026-04-11 00:19 | 23.57005 | 79.35865 | 33969 ft | 457 kts | 298° |
| 2026-04-11 00:20 | 23.60250 | 79.29891 | 33968 ft | 457 kts | 298° |
| 2026-04-11 00:20 | 23.63491 | 79.23916 | 33968 ft | 457 kts | 298° |
| 2026-04-11 00:21 | 23.66709 | 79.17978 | 33968 ft | 457 kts | 298° |
| 2026-04-11 00:21 | 23.69949 | 79.11992 | 33990 ft | 457 kts | 297° |
| 2026-04-11 00:22 | 23.73183 | 79.06010 | 33987 ft | 457 kts | 297° |
| 2026-04-11 00:22 | 23.76414 | 79.00025 | 33979 ft | 457 kts | 297° |
| 2026-04-11 00:23 | 23.79643 | 78.94037 | 33984 ft | 457 kts | 297° |
| 2026-04-11 00:23 | 23.82847 | 78.88088 | 33983 ft | 456 kts | 297° |
| 2026-04-11 00:24 | 23.86062 | 78.82111 | 33974 ft | 456 kts | 297° |
| 2026-04-11 00:24 | 23.89281 | 78.76120 | 33978 ft | 456 kts | 297° |
| 2026-04-11 00:25 | 23.92498 | 78.70125 | 33979 ft | 456 kts | 297° |
| 2026-04-11 00:25 | 23.95696 | 78.64158 | 33977 ft | 457 kts | 297° |
| 2026-04-11 00:26 | 23.98913 | 78.58152 | 33995 ft | 456 kts | 297° |
| 2026-04-11 00:26 | 24.02106 | 78.52200 | 33989 ft | 456 kts | 297° |
| 2026-04-11 00:27 | 24.05380 | 78.46251 | 33981 ft | 455 kts | 297° |
| 2026-04-11 00:27 | 24.08634 | 78.40345 | 33983 ft | 455 kts | 297° |
| 2026-04-11 00:28 | 24.11891 | 78.34406 | 33973 ft | 454 kts | 297° |
| 2026-04-11 00:28 | 24.15140 | 78.28469 | 33970 ft | 454 kts | 297° |
| 2026-04-11 00:29 | 24.18385 | 78.22531 | 33972 ft | 454 kts | 297° |
| 2026-04-11 00:29 | 24.21617 | 78.16612 | 33971 ft | 454 kts | 297° |
| 2026-04-11 00:30 | 24.24857 | 78.10672 | 34018 ft | 453 kts | 297° |
| 2026-04-11 00:30 | 24.28089 | 78.04738 | 34001 ft | 452 kts | 297° |
| 2026-04-11 00:31 | 24.31305 | 77.98824 | 33995 ft | 451 kts | 297° |
| 2026-04-11 00:31 | 24.34516 | 77.92915 | 33985 ft | 450 kts | 297° |
| 2026-04-11 00:32 | 24.37717 | 77.87015 | 33983 ft | 449 kts | 297° |
| 2026-04-11 00:32 | 24.40893 | 77.81155 | 33972 ft | 449 kts | 297° |
| 2026-04-11 00:33 | 24.44079 | 77.75269 | 33970 ft | 448 kts | 297° |
| 2026-04-11 00:33 | 24.46730 | 77.70366 | 33967 ft | 448 kts | 297° |
| 2026-04-11 00:34 | 24.50428 | 77.63518 | 33971 ft | 447 kts | 297° |
| 2026-04-11 00:34 | 24.53069 | 77.58623 | 33993 ft | 447 kts | 297° |
| 2026-04-11 00:35 | 24.56237 | 77.52743 | 33994 ft | 446 kts | 297° |
| 2026-04-11 00:35 | 24.59398 | 77.46868 | 33991 ft | 446 kts | 297° |
| 2026-04-11 00:36 | 24.62550 | 77.41004 | 33978 ft | 445 kts | 296° |
| 2026-04-11 00:36 | 24.65683 | 77.35168 | 33971 ft | 445 kts | 296° |
| 2026-04-11 00:37 | 24.68827 | 77.29305 | 33972 ft | 446 kts | 296° |
| 2026-04-11 00:37 | 24.71998 | 77.23435 | 33973 ft | 446 kts | 297° |
| 2026-04-11 00:38 | 24.75204 | 77.17627 | 33990 ft | 446 kts | 297° |
| 2026-04-11 00:38 | 24.78426 | 77.11776 | 33992 ft | 446 kts | 297° |
| 2026-04-11 00:39 | 24.81639 | 77.05917 | 33990 ft | 446 kts | 297° |
| 2026-04-11 00:39 | 24.84851 | 77.00052 | 33984 ft | 446 kts | 297° |
| 2026-04-11 00:40 | 24.88036 | 76.94227 | 33980 ft | 447 kts | 297° |
| 2026-04-11 00:40 | 24.91241 | 76.88360 | 33979 ft | 446 kts | 297° |
| 2026-04-11 00:41 | 24.94444 | 76.82490 | 33982 ft | 446 kts | 297° |
| 2026-04-11 00:41 | 24.97642 | 76.76621 | 33982 ft | 446 kts | 297° |
| 2026-04-11 00:42 | 25.00932 | 76.70868 | 33963 ft | 448 kts | 302° |
| 2026-04-11 00:42 | 25.04746 | 76.65415 | 33972 ft | 448 kts | 302° |
| 2026-04-11 00:43 | 25.08538 | 76.59956 | 33969 ft | 448 kts | 302° |
| 2026-04-11 00:43 | 25.12327 | 76.54494 | 33962 ft | 447 kts | 302° |
| 2026-04-11 00:44 | 25.16083 | 76.49078 | 33961 ft | 447 kts | 302° |
| 2026-04-11 00:44 | 25.19860 | 76.43626 | 33959 ft | 446 kts | 302° |
| 2026-04-11 00:45 | 25.23630 | 76.38178 | 33956 ft | 446 kts | 302° |
| 2026-04-11 00:45 | 25.27397 | 76.32728 | 33952 ft | 446 kts | 302° |
| 2026-04-11 00:46 | 25.31169 | 76.27266 | 33991 ft | 446 kts | 302° |
| 2026-04-11 00:46 | 25.34927 | 76.21817 | 33981 ft | 445 kts | 302° |
| 2026-04-11 00:47 | 25.38657 | 76.16402 | 33974 ft | 444 kts | 302° |
| 2026-04-11 00:47 | 25.42397 | 76.10965 | 33969 ft | 443 kts | 302° |
| 2026-04-11 00:48 | 25.46130 | 76.05535 | 33962 ft | 442 kts | 302° |
| 2026-04-11 00:48 | 25.49835 | 76.00136 | 33958 ft | 442 kts | 302° |
| 2026-04-11 00:49 | 25.53558 | 75.94707 | 33957 ft | 441 kts | 302° |
| 2026-04-11 00:49 | 25.57274 | 75.89282 | 33976 ft | 441 kts | 302° |
| 2026-04-11 00:50 | 25.60957 | 75.83898 | 33976 ft | 440 kts | 302° |
| 2026-04-11 00:50 | 25.64654 | 75.78488 | 33970 ft | 439 kts | 302° |
| 2026-04-11 00:51 | 25.68343 | 75.73082 | 33961 ft | 439 kts | 302° |
| 2026-04-11 00:51 | 25.72024 | 75.67681 | 33960 ft | 439 kts | 302° |
| 2026-04-11 00:52 | 25.75699 | 75.62284 | 33954 ft | 439 kts | 302° |
| 2026-04-11 00:52 | 25.79376 | 75.56878 | 33959 ft | 439 kts | 302° |
| 2026-04-11 00:53 | 25.83033 | 75.51496 | 33962 ft | 439 kts | 302° |
| 2026-04-11 00:53 | 25.86706 | 75.46084 | 33988 ft | 438 kts | 301° |
| 2026-04-11 00:54 | 25.90209 | 75.40565 | 33964 ft | 435 kts | 299° |
| 2026-04-11 00:54 | 25.93609 | 75.35008 | 33967 ft | 435 kts | 299° |
| 2026-04-11 00:55 | 25.96990 | 75.29484 | 33966 ft | 435 kts | 299° |
| 2026-04-11 00:55 | 26.00389 | 75.23916 | 33971 ft | 435 kts | 299° |
| 2026-04-11 00:56 | 26.03793 | 75.18329 | 33977 ft | 435 kts | 299° |
| 2026-04-11 00:56 | 26.07185 | 75.12754 | 33978 ft | 435 kts | 299° |
| 2026-04-11 00:57 | 26.10580 | 75.07171 | 34003 ft | 435 kts | 299° |
| 2026-04-11 00:57 | 26.13947 | 75.01624 | 33975 ft | 434 kts | 299° |
| 2026-04-11 00:58 | 26.17302 | 74.96038 | 33969 ft | 432 kts | 296° |
| 2026-04-11 00:58 | 26.20220 | 74.90204 | 33970 ft | 430 kts | 294° |
| 2026-04-11 00:59 | 26.23114 | 74.84377 | 33970 ft | 430 kts | 294° |
| 2026-04-11 00:59 | 26.25993 | 74.78570 | 33972 ft | 430 kts | 294° |
| 2026-04-11 01:00 | 26.28878 | 74.72738 | 33988 ft | 430 kts | 294° |
| 2026-04-11 01:00 | 26.31771 | 74.66880 | 33973 ft | 430 kts | 294° |
| 2026-04-11 01:01 | 26.34653 | 74.61037 | 33983 ft | 430 kts | 294° |
| 2026-04-11 01:01 | 26.37514 | 74.55227 | 33987 ft | 429 kts | 294° |
| 2026-04-11 01:02 | 26.40386 | 74.49389 | 33973 ft | 429 kts | 294° |
| 2026-04-11 01:02 | 26.43255 | 74.43549 | 33975 ft | 428 kts | 294° |
| 2026-04-11 01:03 | 26.46118 | 74.37713 | 33968 ft | 428 kts | 294° |
| 2026-04-11 01:03 | 26.48982 | 74.31867 | 33944 ft | 428 kts | 294° |
| 2026-04-11 01:04 | 26.51829 | 74.26048 | 33951 ft | 429 kts | 294° |
| 2026-04-11 01:04 | 26.54694 | 74.20184 | 33957 ft | 430 kts | 294° |
| 2026-04-11 01:05 | 26.57561 | 74.14357 | 33990 ft | 431 kts | 294° |
| 2026-04-11 01:05 | 26.60475 | 74.08509 | 33979 ft | 431 kts | 294° |
| 2026-04-11 01:06 | 26.63385 | 74.02648 | 33982 ft | 430 kts | 294° |
| 2026-04-11 01:06 | 26.66287 | 73.96788 | 33975 ft | 430 kts | 294° |
| 2026-04-11 01:07 | 26.69174 | 73.90948 | 33963 ft | 429 kts | 294° |
| 2026-04-11 01:07 | 26.72056 | 73.85112 | 33962 ft | 428 kts | 294° |
| 2026-04-11 01:08 | 26.74917 | 73.79308 | 33958 ft | 428 kts | 294° |
| 2026-04-11 01:08 | 26.77797 | 73.73459 | 33952 ft | 428 kts | 294° |
| 2026-04-11 01:09 | 26.82086 | 73.64735 | 33964 ft | 428 kts | 294° |
| 2026-04-11 01:09 | 26.84954 | 73.58892 | 33962 ft | 427 kts | 294° |
| 2026-04-11 01:10 | 26.87809 | 73.53066 | 33952 ft | 426 kts | 294° |
| 2026-04-11 01:10 | 26.90664 | 73.47235 | 33945 ft | 426 kts | 294° |
| 2026-04-11 01:11 | 26.93513 | 73.41404 | 33943 ft | 425 kts | 294° |
| 2026-04-11 01:11 | 26.96344 | 73.35606 | 33934 ft | 425 kts | 294° |
| 2026-04-11 01:12 | 26.99153 | 73.29758 | 33932 ft | 425 kts | 293° |
| 2026-04-11 01:12 | 27.01947 | 73.23917 | 33933 ft | 425 kts | 293° |
| 2026-04-11 01:13 | 27.04732 | 73.18101 | 33946 ft | 425 kts | 293° |
| 2026-04-11 01:13 | 27.07530 | 73.12251 | 33965 ft | 424 kts | 293° |
| 2026-04-11 01:14 | 27.10301 | 73.06452 | 33956 ft | 423 kts | 293° |
| 2026-04-11 01:14 | 27.13081 | 73.00623 | 33947 ft | 422 kts | 293° |
| 2026-04-11 01:15 | 27.15848 | 72.94814 | 33939 ft | 422 kts | 293° |
| 2026-04-11 01:15 | 27.18600 | 72.89029 | 33934 ft | 421 kts | 293° |
| 2026-04-11 01:16 | 27.21358 | 72.83223 | 33933 ft | 421 kts | 293° |
| 2026-04-11 01:16 | 27.24119 | 72.77403 | 33930 ft | 420 kts | 293° |
| 2026-04-11 01:17 | 27.26848 | 72.71643 | 33925 ft | 420 kts | 293° |
| 2026-04-11 01:17 | 27.29595 | 72.65837 | 33928 ft | 420 kts | 293° |
| 2026-04-11 01:18 | 27.32338 | 72.60032 | 33928 ft | 420 kts | 293° |
| 2026-04-11 01:18 | 27.35083 | 72.54214 | 33931 ft | 421 kts | 292° |
| 2026-04-11 01:19 | 27.37833 | 72.48376 | 33939 ft | 422 kts | 292° |
| 2026-04-11 01:19 | 27.40585 | 72.42528 | 33943 ft | 423 kts | 292° |
| 2026-04-11 01:20 | 27.43319 | 72.36710 | 33949 ft | 423 kts | 292° |
| 2026-04-11 01:20 | 27.46068 | 72.30851 | 33949 ft | 423 kts | 292° |
| 2026-04-11 01:21 | 27.48349 | 72.25985 | 33951 ft | 422 kts | 292° |
| 2026-04-11 01:21 | 27.51541 | 72.19167 | 33975 ft | 422 kts | 292° |
| 2026-04-11 01:22 | 27.53826 | 72.14278 | 33969 ft | 421 kts | 292° |
| 2026-04-11 01:22 | 27.56532 | 72.08479 | 33957 ft | 420 kts | 292° |
| 2026-04-11 01:23 | 27.59246 | 72.02656 | 33951 ft | 419 kts | 292° |
| 2026-04-11 01:23 | 27.61951 | 71.96844 | 33944 ft | 418 kts | 292° |
| 2026-04-11 01:24 | 27.64645 | 71.91048 | 33937 ft | 417 kts | 292° |
| 2026-04-11 01:24 | 27.67336 | 71.85252 | 33937 ft | 416 kts | 292° |
| 2026-04-11 01:25 | 27.70004 | 71.79495 | 33934 ft | 416 kts | 292° |
| 2026-04-11 01:25 | 27.72680 | 71.73714 | 33976 ft | 415 kts | 292° |
| 2026-04-11 01:26 | 27.75351 | 71.67935 | 33951 ft | 414 kts | 292° |
| 2026-04-11 01:26 | 27.78014 | 71.62165 | 33944 ft | 413 kts | 292° |
| 2026-04-11 01:27 | 27.80655 | 71.56436 | 33947 ft | 413 kts | 292° |
| 2026-04-11 01:27 | 27.83308 | 71.50674 | 33934 ft | 412 kts | 292° |
| 2026-04-11 01:28 | 27.85952 | 71.44924 | 33920 ft | 412 kts | 292° |
| 2026-04-11 01:28 | 27.88546 | 71.39202 | 33913 ft | 411 kts | 291° |
| 2026-04-11 01:29 | 27.91053 | 71.33398 | 33922 ft | 411 kts | 291° |
| 2026-04-11 01:29 | 27.93567 | 71.27588 | 33918 ft | 411 kts | 291° |
| 2026-04-11 01:30 | 27.96089 | 71.21782 | 33945 ft | 411 kts | 291° |
| 2026-04-11 01:30 | 27.98599 | 71.16003 | 33952 ft | 410 kts | 291° |
| 2026-04-11 01:31 | 28.01113 | 71.10206 | 33945 ft | 410 kts | 291° |
| 2026-04-11 01:31 | 28.03626 | 71.04401 | 33939 ft | 410 kts | 291° |
| 2026-04-11 01:32 | 28.06135 | 70.98598 | 33929 ft | 410 kts | 291° |
| 2026-04-11 01:32 | 28.08621 | 70.92840 | 33933 ft | 409 kts | 291° |
| 2026-04-11 01:33 | 28.11122 | 70.87038 | 33913 ft | 409 kts | 291° |
| 2026-04-11 01:33 | 28.13618 | 70.81240 | 33927 ft | 409 kts | 291° |
| 2026-04-11 01:34 | 28.16096 | 70.75473 | 33957 ft | 409 kts | 290° |
| 2026-04-11 01:34 | 28.18591 | 70.69662 | 33947 ft | 409 kts | 290° |
| 2026-04-11 01:35 | 28.21078 | 70.63860 | 33944 ft | 408 kts | 290° |
| 2026-04-11 01:35 | 28.23552 | 70.58079 | 33930 ft | 407 kts | 290° |
| 2026-04-11 01:36 | 28.26008 | 70.52334 | 33928 ft | 406 kts | 290° |
| 2026-04-11 01:36 | 28.28470 | 70.46565 | 33925 ft | 406 kts | 290° |
| 2026-04-11 01:37 | 28.30929 | 70.40793 | 33923 ft | 405 kts | 290° |
| 2026-04-11 01:37 | 28.33413 | 70.35042 | 33916 ft | 407 kts | 294° |
| 2026-04-11 01:38 | 28.36942 | 70.29948 | 33954 ft | 423 kts | 309° |
| 2026-04-11 01:38 | 28.39293 | 70.27845 | 33942 ft | 435 kts | 316° |
| 2026-04-11 01:38 | 28.41972 | 70.26156 | 33939 ft | 447 kts | 325° |
| 2026-04-11 01:39 | 28.44948 | 70.24949 | 33937 ft | 462 kts | 334° |
| 2026-04-11 01:39 | 28.48091 | 70.24086 | 33939 ft | 464 kts | 334° |
| 2026-04-11 01:39 | 28.54367 | 70.22333 | 33933 ft | 463 kts | 334° |
| 2026-04-11 01:40 | 28.60621 | 70.20566 | 33935 ft | 463 kts | 334° |
| 2026-04-11 01:40 | 28.66846 | 70.18804 | 33951 ft | 463 kts | 334° |
| 2026-04-11 01:41 | 28.73103 | 70.17032 | 33945 ft | 462 kts | 334° |
| 2026-04-11 01:41 | 28.79316 | 70.15271 | 33943 ft | 462 kts | 334° |
| 2026-04-11 01:42 | 28.85553 | 70.13501 | 33947 ft | 462 kts | 334° |
| 2026-04-11 01:42 | 28.91801 | 70.11726 | 33958 ft | 462 kts | 333° |
| 2026-04-11 01:43 | 28.98043 | 70.09950 | 33956 ft | 462 kts | 333° |
| 2026-04-11 01:43 | 29.04279 | 70.08174 | 33957 ft | 461 kts | 333° |
| 2026-04-11 01:44 | 29.10469 | 70.06408 | 33964 ft | 461 kts | 333° |
| 2026-04-11 01:44 | 29.16706 | 70.04627 | 33988 ft | 461 kts | 333° |
| 2026-04-11 01:45 | 29.22939 | 70.02845 | 33979 ft | 460 kts | 333° |
| 2026-04-11 01:45 | 29.29115 | 70.01077 | 33974 ft | 460 kts | 333° |
| 2026-04-11 01:46 | 29.35326 | 69.99297 | 33978 ft | 459 kts | 333° |
| 2026-04-11 01:46 | 29.41502 | 69.97524 | 34006 ft | 459 kts | 333° |
| 2026-04-11 01:47 | 29.47698 | 69.95746 | 34001 ft | 458 kts | 333° |
| 2026-04-11 01:47 | 29.53881 | 69.93969 | 33998 ft | 456 kts | 332° |
| 2026-04-11 01:48 | 29.60029 | 69.92199 | 34025 ft | 454 kts | 332° |
| 2026-04-11 01:48 | 29.66145 | 69.90428 | 33990 ft | 455 kts | 332° |
| 2026-04-11 01:49 | 29.72295 | 69.88650 | 34002 ft | 456 kts | 332° |
| 2026-04-11 01:49 | 29.78456 | 69.86869 | 34009 ft | 456 kts | 332° |
| 2026-04-11 01:50 | 29.84630 | 69.85081 | 34023 ft | 456 kts | 332° |
| 2026-04-11 01:50 | 29.90736 | 69.83315 | 34022 ft | 453 kts | 332° |
| 2026-04-11 01:51 | 29.96871 | 69.81530 | 34017 ft | 455 kts | 332° |
| 2026-04-11 01:51 | 30.03020 | 69.79744 | 34009 ft | 455 kts | 332° |
| 2026-04-11 01:52 | 30.09141 | 69.77962 | 34040 ft | 455 kts | 332° |
| 2026-04-11 01:52 | 30.15292 | 69.76169 | 34055 ft | 456 kts | 332° |
| 2026-04-11 01:53 | 30.21471 | 69.74364 | 34060 ft | 458 kts | 333° |
| 2026-04-11 01:53 | 30.27653 | 69.72599 | 34077 ft | 462 kts | 334° |
| 2026-04-11 01:54 | 30.33992 | 69.71084 | 34083 ft | 465 kts | 335° |
| 2026-04-11 01:54 | 30.40333 | 69.69576 | 34089 ft | 465 kts | 335° |
| 2026-04-11 01:55 | 30.46662 | 69.68031 | 34092 ft | 465 kts | 335° |
| 2026-04-11 01:55 | 30.52986 | 69.66477 | 34089 ft | 464 kts | 335° |
| 2026-04-11 01:56 | 30.59243 | 69.64938 | 34087 ft | 463 kts | 335° |
| 2026-04-11 01:56 | 30.65563 | 69.63382 | 34083 ft | 463 kts | 335° |
| 2026-04-11 01:57 | 30.71867 | 69.61825 | 34069 ft | 464 kts | 336° |
| 2026-04-11 01:57 | 30.78204 | 69.60258 | 34056 ft | 465 kts | 336° |
| 2026-04-11 01:58 | 30.84531 | 69.58693 | 34069 ft | 465 kts | 336° |
| 2026-04-11 01:58 | 30.90831 | 69.57136 | 34077 ft | 465 kts | 336° |
| 2026-04-11 01:59 | 30.97175 | 69.55561 | 34076 ft | 467 kts | 337° |
| 2026-04-11 01:59 | 31.03572 | 69.53972 | 34090 ft | 469 kts | 337° |
| 2026-04-11 02:00 | 31.09970 | 69.52383 | 34105 ft | 470 kts | 337° |
| 2026-04-11 02:00 | 31.16322 | 69.50803 | 34112 ft | 469 kts | 337° |
| 2026-04-11 02:01 | 31.22718 | 69.49208 | 34118 ft | 469 kts | 337° |
| 2026-04-11 02:01 | 31.29125 | 69.47607 | 34088 ft | 469 kts | 336° |
| 2026-04-11 02:02 | 31.32191 | 69.46500 | 34087 ft | 455 kts | 327° |
| 2026-04-11 02:02 | 31.34973 | 69.44837 | 34085 ft | 443 kts | 319° |
| 2026-04-11 02:02 | 31.39485 | 69.40268 | 34087 ft | 424 kts | 303° |
| 2026-04-11 02:03 | 31.43133 | 69.34860 | 34093 ft | 423 kts | 302° |
| 2026-04-11 02:03 | 31.46804 | 69.29460 | 34076 ft | 424 kts | 302° |
| 2026-04-11 02:04 | 31.50475 | 69.24041 | 34096 ft | 425 kts | 302° |
| 2026-04-11 02:04 | 31.54129 | 69.18635 | 34062 ft | 425 kts | 302° |
| 2026-04-11 02:05 | 31.57790 | 69.13208 | 34100 ft | 424 kts | 302° |
| 2026-04-11 02:05 | 31.61444 | 69.07779 | 34100 ft | 423 kts | 302° |
| 2026-04-11 02:06 | 31.65099 | 69.02343 | 34154 ft | 424 kts | 302° |
| 2026-04-11 02:06 | 31.68801 | 68.96923 | 34110 ft | 426 kts | 304° |
| 2026-04-11 02:07 | 31.72643 | 68.91612 | 34116 ft | 426 kts | 304° |
| 2026-04-11 02:07 | 31.76476 | 68.86291 | 34111 ft | 426 kts | 304° |
| 2026-04-11 02:08 | 31.80255 | 68.81002 | 34133 ft | 425 kts | 304° |
| 2026-04-11 02:08 | 31.84051 | 68.75674 | 34125 ft | 424 kts | 303° |
| 2026-04-11 02:09 | 31.87845 | 68.70342 | 34126 ft | 425 kts | 304° |
| 2026-04-11 02:09 | 31.91618 | 68.65031 | 34117 ft | 424 kts | 304° |
| 2026-04-11 02:10 | 31.94764 | 68.60599 | 34109 ft | 424 kts | 304° |
| 2026-04-11 02:10 | 31.98547 | 68.55261 | 34116 ft | 424 kts | 304° |
| 2026-04-11 02:11 | 32.02323 | 68.49926 | 34126 ft | 423 kts | 303° |
| 2026-04-11 02:11 | 32.06088 | 68.44598 | 34126 ft | 423 kts | 303° |
| 2026-04-11 02:12 | 32.09853 | 68.39263 | 34120 ft | 423 kts | 303° |
| 2026-04-11 02:12 | 32.13618 | 68.33920 | 34130 ft | 423 kts | 303° |
| 2026-04-11 02:13 | 32.17361 | 68.28601 | 34127 ft | 423 kts | 303° |
| 2026-04-11 02:13 | 32.21121 | 68.23251 | 34131 ft | 423 kts | 303° |
| 2026-04-11 02:14 | 32.24864 | 68.17917 | 34117 ft | 423 kts | 303° |
| 2026-04-11 02:14 | 32.28626 | 68.12546 | 34128 ft | 425 kts | 303° |
| 2026-04-11 02:15 | 32.32399 | 68.07154 | 34139 ft | 425 kts | 303° |
| 2026-04-11 02:15 | 32.36165 | 68.01764 | 34133 ft | 425 kts | 303° |
| 2026-04-11 02:16 | 32.39906 | 67.96404 | 34129 ft | 424 kts | 303° |
| 2026-04-11 02:16 | 32.43665 | 67.91009 | 34123 ft | 424 kts | 303° |
| 2026-04-11 02:17 | 32.47418 | 67.85613 | 34123 ft | 424 kts | 303° |
| 2026-04-11 02:17 | 32.51155 | 67.80249 | 34117 ft | 424 kts | 304° |
| 2026-04-11 02:18 | 32.55084 | 67.75001 | 34117 ft | 426 kts | 306° |
| 2026-04-11 02:18 | 32.59041 | 67.69778 | 34119 ft | 425 kts | 306° |
| 2026-04-11 02:19 | 32.62981 | 67.64518 | 34126 ft | 426 kts | 305° |
| 2026-04-11 02:19 | 32.66912 | 67.59247 | 34160 ft | 426 kts | 306° |
| 2026-04-11 02:20 | 32.70821 | 67.53997 | 34111 ft | 426 kts | 306° |
| 2026-04-11 02:20 | 32.74731 | 67.48739 | 34135 ft | 425 kts | 306° |
| 2026-04-11 02:21 | 32.78634 | 67.43465 | 34130 ft | 424 kts | 305° |
| 2026-04-11 02:21 | 32.82394 | 67.38088 | 34142 ft | 423 kts | 304° |
| 2026-04-11 02:22 | 32.88036 | 67.29966 | 34129 ft | 426 kts | 304° |
| 2026-04-11 02:23 | 32.91805 | 67.24569 | 34169 ft | 426 kts | 304° |
| 2026-04-11 02:23 | 32.95595 | 67.19136 | 34164 ft | 426 kts | 304° |
| 2026-04-11 02:24 | 32.99390 | 67.13688 | 34183 ft | 427 kts | 304° |
| 2026-04-11 02:24 | 33.03162 | 67.08261 | 34190 ft | 428 kts | 304° |
| 2026-04-11 02:25 | 33.06959 | 67.02793 | 34203 ft | 429 kts | 304° |
| 2026-04-11 02:25 | 33.10773 | 66.97292 | 34213 ft | 430 kts | 304° |
| 2026-04-11 02:26 | 33.14584 | 66.91787 | 34230 ft | 430 kts | 304° |
| 2026-04-11 02:26 | 33.18373 | 66.86307 | 34230 ft | 429 kts | 304° |
| 2026-04-11 02:27 | 33.22174 | 66.80801 | 34232 ft | 429 kts | 304° |
| 2026-04-11 02:27 | 33.25948 | 66.75323 | 34216 ft | 429 kts | 304° |
| 2026-04-11 02:28 | 33.29741 | 66.69809 | 34214 ft | 428 kts | 304° |
| 2026-04-11 02:28 | 33.33527 | 66.64300 | 34219 ft | 429 kts | 304° |
| 2026-04-11 02:29 | 33.37317 | 66.58774 | 34209 ft | 429 kts | 304° |
| 2026-04-11 02:29 | 33.41097 | 66.53257 | 34219 ft | 427 kts | 304° |
| 2026-04-11 02:30 | 33.44869 | 66.47739 | 34207 ft | 428 kts | 304° |
| 2026-04-11 02:30 | 33.48608 | 66.42258 | 34201 ft | 427 kts | 304° |
| 2026-04-11 02:31 | 33.52360 | 66.36725 | 34204 ft | 427 kts | 304° |
| 2026-04-11 02:31 | 33.56108 | 66.31194 | 34205 ft | 427 kts | 304° |
| 2026-04-11 02:32 | 33.59864 | 66.25645 | 34213 ft | 427 kts | 304° |
| 2026-04-11 02:32 | 33.63582 | 66.20144 | 34215 ft | 427 kts | 304° |
| 2026-04-11 02:33 | 33.67321 | 66.14602 | 34224 ft | 426 kts | 304° |
| 2026-04-11 02:33 | 33.71050 | 66.09066 | 34207 ft | 426 kts | 304° |
| 2026-04-11 02:34 | 33.74772 | 66.03531 | 34220 ft | 426 kts | 304° |
| 2026-04-11 02:34 | 33.78495 | 65.97990 | 34231 ft | 426 kts | 304° |
| 2026-04-11 02:35 | 33.82194 | 65.92474 | 34244 ft | 427 kts | 304° |
| 2026-04-11 02:35 | 33.85938 | 65.86882 | 34255 ft | 428 kts | 304° |
| 2026-04-11 02:36 | 33.89678 | 65.81290 | 34272 ft | 428 kts | 304° |
| 2026-04-11 02:36 | 33.93390 | 65.75729 | 34268 ft | 428 kts | 304° |
| 2026-04-11 02:37 | 33.97114 | 65.70135 | 34274 ft | 428 kts | 304° |
| 2026-04-11 02:37 | 34.00845 | 65.64530 | 34272 ft | 428 kts | 304° |
| 2026-04-11 02:38 | 34.04568 | 65.58929 | 34276 ft | 427 kts | 304° |
| 2026-04-11 02:38 | 34.08278 | 65.53337 | 34271 ft | 427 kts | 304° |
| 2026-04-11 02:39 | 34.11981 | 65.47760 | 34286 ft | 427 kts | 304° |
| 2026-04-11 02:39 | 34.15698 | 65.42157 | 34285 ft | 427 kts | 304° |
| 2026-04-11 02:40 | 34.19409 | 65.36552 | 34268 ft | 428 kts | 304° |
| 2026-04-11 02:40 | 34.23128 | 65.30928 | 34273 ft | 428 kts | 304° |
| 2026-04-11 02:41 | 34.26839 | 65.25306 | 34275 ft | 428 kts | 304° |
| 2026-04-11 02:41 | 34.30525 | 65.19711 | 34271 ft | 428 kts | 304° |
| 2026-04-11 02:42 | 34.34249 | 65.14050 | 34276 ft | 429 kts | 304° |
| 2026-04-11 02:42 | 34.37952 | 65.08411 | 34272 ft | 431 kts | 304° |
| 2026-04-11 02:43 | 34.41693 | 65.02710 | 34284 ft | 432 kts | 304° |
| 2026-04-11 02:43 | 34.45437 | 64.96992 | 34275 ft | 433 kts | 304° |
| 2026-04-11 02:44 | 34.49152 | 64.91312 | 34298 ft | 432 kts | 304° |
| 2026-04-11 02:44 | 34.52878 | 64.85593 | 34322 ft | 432 kts | 304° |
| 2026-04-11 02:45 | 34.56610 | 64.79848 | 34284 ft | 433 kts | 304° |
| 2026-04-11 02:45 | 34.60330 | 64.74116 | 34290 ft | 434 kts | 304° |
| 2026-04-11 02:46 | 34.64063 | 64.68355 | 34286 ft | 434 kts | 304° |
| 2026-04-11 02:46 | 34.67794 | 64.62587 | 34285 ft | 434 kts | 304° |
| 2026-04-11 02:47 | 34.71524 | 64.56810 | 34257 ft | 435 kts | 304° |
| 2026-04-11 02:47 | 34.75242 | 64.51044 | 34258 ft | 436 kts | 304° |
| 2026-04-11 02:48 | 34.78998 | 64.45210 | 34259 ft | 437 kts | 304° |
| 2026-04-11 02:48 | 34.82751 | 64.39371 | 34272 ft | 438 kts | 304° |
| 2026-04-11 02:49 | 34.86496 | 64.33541 | 34271 ft | 437 kts | 304° |
| 2026-04-11 02:49 | 34.90243 | 64.27686 | 34255 ft | 439 kts | 304° |
| 2026-04-11 02:50 | 34.93995 | 64.21819 | 34259 ft | 439 kts | 304° |
| 2026-04-11 02:50 | 34.97730 | 64.15967 | 34277 ft | 440 kts | 304° |
| 2026-04-11 02:51 | 35.01492 | 64.10065 | 34269 ft | 441 kts | 304° |
| 2026-04-11 02:51 | 35.05253 | 64.04153 | 34248 ft | 440 kts | 304° |
| 2026-04-11 02:52 | 35.09006 | 63.98247 | 34241 ft | 440 kts | 304° |
| 2026-04-11 02:52 | 35.12734 | 63.92368 | 34247 ft | 440 kts | 304° |
| 2026-04-11 02:53 | 35.16482 | 63.86447 | 34254 ft | 441 kts | 304° |
| 2026-04-11 02:53 | 35.20238 | 63.80504 | 34251 ft | 441 kts | 304° |
| 2026-04-11 02:54 | 35.24003 | 63.74534 | 34229 ft | 443 kts | 304° |
| 2026-04-11 02:54 | 35.27736 | 63.68606 | 34245 ft | 443 kts | 304° |
| 2026-04-11 02:55 | 35.31506 | 63.62621 | 34236 ft | 443 kts | 304° |
| 2026-04-11 02:55 | 35.35282 | 63.56647 | 34221 ft | 442 kts | 304° |
| 2026-04-11 02:56 | 35.39024 | 63.50717 | 34226 ft | 443 kts | 304° |
| 2026-04-11 02:56 | 35.42801 | 63.44715 | 34213 ft | 445 kts | 305° |
| 2026-04-11 02:57 | 35.46576 | 63.38710 | 34226 ft | 445 kts | 304° |
| 2026-04-11 02:57 | 35.50352 | 63.32691 | 34223 ft | 445 kts | 304° |
| 2026-04-11 02:58 | 35.54127 | 63.26663 | 34219 ft | 444 kts | 304° |
| 2026-04-11 02:58 | 35.57880 | 63.20659 | 34199 ft | 446 kts | 304° |
| 2026-04-11 02:59 | 35.61631 | 63.14590 | 34202 ft | 446 kts | 304° |
| 2026-04-11 02:59 | 35.64733 | 63.09519 | 34207 ft | 446 kts | 304° |
| 2026-04-11 03:00 | 35.68467 | 63.03419 | 34213 ft | 446 kts | 304° |
| 2026-04-11 03:00 | 35.72205 | 62.97306 | 34212 ft | 445 kts | 304° |
| 2026-04-11 03:01 | 35.75906 | 62.91245 | 34204 ft | 445 kts | 304° |
| 2026-04-11 03:01 | 35.79623 | 62.85145 | 34202 ft | 445 kts | 304° |
| 2026-04-11 03:02 | 35.83336 | 62.79043 | 34200 ft | 444 kts | 303° |
| 2026-04-11 03:02 | 35.87040 | 62.72943 | 34212 ft | 444 kts | 304° |
| 2026-04-11 03:03 | 35.90746 | 62.66826 | 34173 ft | 445 kts | 304° |
| 2026-04-11 03:03 | 35.94452 | 62.60703 | 34172 ft | 445 kts | 304° |
| 2026-04-11 03:04 | 35.98159 | 62.54566 | 34177 ft | 446 kts | 304° |
| 2026-04-11 03:04 | 36.01865 | 62.48422 | 34183 ft | 446 kts | 303° |
| 2026-04-11 03:05 | 36.05557 | 62.42287 | 34171 ft | 447 kts | 304° |
| 2026-04-11 03:05 | 36.09263 | 62.36118 | 34178 ft | 447 kts | 303° |
| 2026-04-11 03:06 | 36.12977 | 62.29926 | 34171 ft | 447 kts | 303° |
| 2026-04-11 03:06 | 36.16684 | 62.23735 | 34168 ft | 447 kts | 303° |
| 2026-04-11 03:07 | 36.20388 | 62.17536 | 34154 ft | 448 kts | 304° |
| 2026-04-11 03:07 | 36.24075 | 62.11354 | 34158 ft | 449 kts | 304° |
| 2026-04-11 03:08 | 36.29645 | 62.01996 | 34162 ft | 450 kts | 303° |
| 2026-04-11 03:08 | 36.33359 | 61.95741 | 34159 ft | 450 kts | 303° |
| 2026-04-11 03:09 | 36.37076 | 61.89471 | 34152 ft | 450 kts | 303° |
| 2026-04-11 03:09 | 36.40770 | 61.83227 | 34153 ft | 451 kts | 303° |
| 2026-04-11 03:10 | 36.44479 | 61.76945 | 34151 ft | 451 kts | 303° |
| 2026-04-11 03:10 | 36.48165 | 61.70692 | 34150 ft | 450 kts | 303° |
| 2026-04-11 03:11 | 36.51873 | 61.64390 | 34137 ft | 451 kts | 303° |
| 2026-04-11 03:11 | 36.55579 | 61.58079 | 34137 ft | 452 kts | 303° |
| 2026-04-11 03:12 | 36.59284 | 61.51760 | 34140 ft | 452 kts | 303° |
| 2026-04-11 03:12 | 36.62985 | 61.45438 | 34135 ft | 452 kts | 303° |
| 2026-04-11 03:13 | 36.66613 | 61.39088 | 34130 ft | 452 kts | 302° |
| 2026-04-11 03:13 | 36.70248 | 61.32671 | 34133 ft | 452 kts | 302° |
| 2026-04-11 03:14 | 36.73883 | 61.26264 | 34137 ft | 452 kts | 302° |
| 2026-04-11 03:14 | 36.77512 | 61.19861 | 34132 ft | 452 kts | 302° |
| 2026-04-11 03:15 | 36.81118 | 61.13488 | 34125 ft | 452 kts | 302° |
| 2026-04-11 03:15 | 36.84750 | 61.07057 | 34121 ft | 453 kts | 302° |
| 2026-04-11 03:16 | 36.88378 | 61.00622 | 34121 ft | 453 kts | 302° |
| 2026-04-11 03:16 | 36.92002 | 60.94179 | 34119 ft | 453 kts | 302° |
| 2026-04-11 03:17 | 36.95628 | 60.87723 | 34110 ft | 454 kts | 302° |
| 2026-04-11 03:17 | 36.99295 | 60.81297 | 34111 ft | 455 kts | 304° |
| 2026-04-11 03:18 | 37.03216 | 60.75124 | 34104 ft | 455 kts | 306° |
| 2026-04-11 03:18 | 37.07161 | 60.68909 | 34106 ft | 455 kts | 305° |
| 2026-04-11 03:19 | 37.11070 | 60.62659 | 34098 ft | 456 kts | 305° |
| 2026-04-11 03:19 | 37.14970 | 60.56393 | 34100 ft | 456 kts | 305° |
| 2026-04-11 03:20 | 37.18847 | 60.50151 | 34099 ft | 456 kts | 305° |
| 2026-04-11 03:20 | 37.22744 | 60.43867 | 34097 ft | 456 kts | 304° |
| 2026-04-11 03:21 | 37.26643 | 60.37567 | 34089 ft | 456 kts | 304° |
| 2026-04-11 03:21 | 37.30510 | 60.31306 | 34088 ft | 456 kts | 304° |
| 2026-04-11 03:22 | 37.34397 | 60.25004 | 34082 ft | 455 kts | 304° |
| 2026-04-11 03:22 | 37.38280 | 60.18693 | 34067 ft | 456 kts | 304° |
| 2026-04-11 03:23 | 37.42158 | 60.12382 | 34073 ft | 456 kts | 304° |
| 2026-04-11 03:23 | 37.46014 | 60.06092 | 34072 ft | 456 kts | 304° |
| 2026-04-11 03:24 | 37.49896 | 59.99748 | 34067 ft | 456 kts | 304° |
| 2026-04-11 03:24 | 37.53766 | 59.93410 | 34064 ft | 457 kts | 304° |
| 2026-04-11 03:25 | 37.57624 | 59.87082 | 34058 ft | 457 kts | 304° |
| 2026-04-11 03:25 | 37.61506 | 59.80701 | 34062 ft | 458 kts | 304° |
| 2026-04-11 03:26 | 37.65385 | 59.74314 | 34063 ft | 458 kts | 304° |
| 2026-04-11 03:26 | 37.69237 | 59.67959 | 34059 ft | 459 kts | 304° |
| 2026-04-11 03:27 | 37.73113 | 59.61552 | 34057 ft | 459 kts | 304° |
| 2026-04-11 03:27 | 37.76982 | 59.55143 | 34044 ft | 459 kts | 304° |
| 2026-04-11 03:28 | 37.80865 | 59.48698 | 34033 ft | 460 kts | 304° |
| 2026-04-11 03:28 | 37.84725 | 59.42280 | 34045 ft | 460 kts | 304° |
| 2026-04-11 03:29 | 37.88600 | 59.35807 | 34027 ft | 459 kts | 302° |
| 2026-04-11 03:29 | 37.91999 | 59.28976 | 34044 ft | 458 kts | 298° |
| 2026-04-11 03:30 | 37.95312 | 59.22139 | 34029 ft | 458 kts | 299° |
| 2026-04-11 03:30 | 37.98647 | 59.15247 | 34047 ft | 459 kts | 298° |
| 2026-04-11 03:31 | 38.01978 | 59.08330 | 34027 ft | 459 kts | 298° |
| 2026-04-11 03:31 | 38.05300 | 59.01413 | 34012 ft | 459 kts | 298° |
| 2026-04-11 03:32 | 38.08619 | 58.94485 | 34018 ft | 459 kts | 298° |
| 2026-04-11 03:32 | 38.11917 | 58.87590 | 34020 ft | 459 kts | 298° |
| 2026-04-11 03:33 | 38.15231 | 58.80645 | 34013 ft | 459 kts | 298° |
| 2026-04-11 03:33 | 38.18543 | 58.73687 | 34028 ft | 459 kts | 298° |
| 2026-04-11 03:34 | 38.21854 | 58.66717 | 34012 ft | 460 kts | 298° |
| 2026-04-11 03:34 | 38.25147 | 58.59773 | 34013 ft | 461 kts | 298° |
| 2026-04-11 03:35 | 38.28452 | 58.52787 | 34021 ft | 461 kts | 298° |
| 2026-04-11 03:35 | 38.31758 | 58.45785 | 34021 ft | 461 kts | 298° |
| 2026-04-11 03:36 | 38.35062 | 58.38771 | 34011 ft | 461 kts | 298° |
| 2026-04-11 03:36 | 38.38334 | 58.31809 | 34010 ft | 461 kts | 298° |
| 2026-04-11 03:37 | 38.41303 | 58.24598 | 34008 ft | 458 kts | 292° |
| 2026-04-11 03:37 | 38.43918 | 58.17174 | 34004 ft | 458 kts | 292° |
| 2026-04-11 03:38 | 38.46552 | 58.09758 | 34000 ft | 458 kts | 292° |
| 2026-04-11 03:38 | 38.49157 | 58.02385 | 33998 ft | 458 kts | 292° |
| 2026-04-11 03:39 | 38.51777 | 57.94940 | 34001 ft | 458 kts | 292° |
| 2026-04-11 03:39 | 38.54388 | 57.87504 | 34000 ft | 458 kts | 292° |
| 2026-04-11 03:40 | 38.56976 | 57.80110 | 33999 ft | 458 kts | 291° |
| 2026-04-11 03:40 | 38.59577 | 57.72661 | 33999 ft | 458 kts | 291° |
| 2026-04-11 03:41 | 38.62119 | 57.65182 | 33993 ft | 457 kts | 288° |
| 2026-04-11 03:41 | 38.64290 | 57.57535 | 33995 ft | 457 kts | 288° |
| 2026-04-11 03:42 | 38.66473 | 57.49936 | 33994 ft | 458 kts | 288° |
| 2026-04-11 03:42 | 38.68668 | 57.42257 | 33999 ft | 458 kts | 288° |
| 2026-04-11 03:43 | 38.70856 | 57.34571 | 34003 ft | 459 kts | 288° |
| 2026-04-11 03:43 | 38.73023 | 57.26933 | 34020 ft | 459 kts | 288° |
| 2026-04-11 03:44 | 38.75198 | 57.19243 | 34004 ft | 459 kts | 288° |
| 2026-04-11 03:44 | 38.77371 | 57.11539 | 34007 ft | 459 kts | 288° |
| 2026-04-11 03:45 | 38.79528 | 57.03868 | 34010 ft | 459 kts | 288° |
| 2026-04-11 03:45 | 38.81686 | 56.96172 | 34005 ft | 459 kts | 288° |
| 2026-04-11 03:46 | 38.83844 | 56.88452 | 34010 ft | 459 kts | 287° |
| 2026-04-11 03:46 | 38.85998 | 56.80724 | 33999 ft | 460 kts | 287° |
| 2026-04-11 03:47 | 38.87787 | 56.74289 | 34001 ft | 460 kts | 287° |
| 2026-04-11 03:47 | 38.90280 | 56.65294 | 34000 ft | 460 kts | 287° |
| 2026-04-11 03:48 | 38.92424 | 56.57536 | 34014 ft | 461 kts | 287° |
| 2026-04-11 03:48 | 38.94206 | 56.51068 | 34015 ft | 462 kts | 287° |
| 2026-04-11 03:49 | 38.96345 | 56.43278 | 34017 ft | 462 kts | 287° |
| 2026-04-11 03:49 | 38.98488 | 56.35455 | 34019 ft | 463 kts | 287° |
| 2026-04-11 03:50 | 39.00535 | 56.27609 | 34022 ft | 462 kts | 283° |
| 2026-04-11 03:50 | 39.02333 | 56.19722 | 34020 ft | 463 kts | 284° |
| 2026-04-11 03:51 | 39.04164 | 56.11783 | 34022 ft | 463 kts | 284° |
| 2026-04-11 03:51 | 39.05983 | 56.03837 | 34023 ft | 463 kts | 284° |
| 2026-04-11 03:52 | 39.07795 | 55.95878 | 34028 ft | 463 kts | 284° |
| 2026-04-11 03:52 | 39.09601 | 55.87919 | 34026 ft | 463 kts | 284° |
| 2026-04-11 03:53 | 39.11389 | 55.80009 | 34024 ft | 463 kts | 283° |
| 2026-04-11 03:53 | 39.13185 | 55.72037 | 34022 ft | 463 kts | 283° |
| 2026-04-11 03:54 | 39.14978 | 55.64049 | 34028 ft | 463 kts | 283° |
| 2026-04-11 03:54 | 39.16764 | 55.56062 | 34026 ft | 464 kts | 283° |
| 2026-04-11 03:55 | 39.18534 | 55.48107 | 34020 ft | 464 kts | 283° |
| 2026-04-11 03:55 | 39.20306 | 55.40110 | 34029 ft | 464 kts | 283° |
| 2026-04-11 03:56 | 39.22076 | 55.32095 | 34028 ft | 464 kts | 283° |
| 2026-04-11 03:56 | 39.23841 | 55.24077 | 34029 ft | 465 kts | 283° |
| 2026-04-11 03:57 | 39.25600 | 55.16056 | 34028 ft | 465 kts | 283° |
| 2026-04-11 03:57 | 39.27353 | 55.08032 | 34028 ft | 465 kts | 283° |
| 2026-04-11 03:58 | 39.29094 | 55.00031 | 34027 ft | 465 kts | 283° |
| 2026-04-11 03:58 | 39.30840 | 54.91983 | 34043 ft | 465 kts | 283° |
| 2026-04-11 03:59 | 39.32579 | 54.83933 | 34031 ft | 465 kts | 282° |
| 2026-04-11 03:59 | 39.34305 | 54.75917 | 34031 ft | 465 kts | 282° |
| 2026-04-11 04:00 | 39.36029 | 54.67877 | 34035 ft | 464 kts | 282° |
| 2026-04-11 04:00 | 39.37750 | 54.59824 | 34034 ft | 464 kts | 282° |
| 2026-04-11 04:01 | 39.39466 | 54.51763 | 34028 ft | 464 kts | 282° |
| 2026-04-11 04:01 | 39.41176 | 54.43703 | 34027 ft | 464 kts | 282° |
| 2026-04-11 04:02 | 39.42877 | 54.35653 | 34027 ft | 464 kts | 282° |
| 2026-04-11 04:02 | 39.44564 | 54.27640 | 34027 ft | 464 kts | 282° |
| 2026-04-11 04:03 | 39.46258 | 54.19563 | 34024 ft | 465 kts | 282° |
| 2026-04-11 04:03 | 39.47947 | 54.11479 | 34022 ft | 465 kts | 282° |
| 2026-04-11 04:04 | 39.49976 | 54.03564 | 34024 ft | 469 kts | 290° |
| 2026-04-11 04:04 | 39.53204 | 53.96178 | 34035 ft | 475 kts | 301° |
| 2026-04-11 04:05 | 39.57029 | 53.89166 | 34012 ft | 476 kts | 301° |
| 2026-04-11 04:05 | 39.60834 | 53.82118 | 34023 ft | 477 kts | 301° |
| 2026-04-11 04:06 | 39.64617 | 53.75101 | 34043 ft | 477 kts | 301° |
| 2026-04-11 04:06 | 39.68428 | 53.68022 | 34029 ft | 478 kts | 301° |
| 2026-04-11 04:07 | 39.72236 | 53.60934 | 34033 ft | 478 kts | 301° |
| 2026-04-11 04:07 | 39.76041 | 53.53836 | 34033 ft | 479 kts | 301° |
| 2026-04-11 04:08 | 39.79852 | 53.46711 | 34026 ft | 479 kts | 301° |
| 2026-04-11 04:08 | 39.83655 | 53.39584 | 34027 ft | 479 kts | 301° |
| 2026-04-11 04:09 | 39.87448 | 53.32459 | 34025 ft | 479 kts | 301° |
| 2026-04-11 04:09 | 39.91220 | 53.25360 | 34030 ft | 479 kts | 301° |
| 2026-04-11 04:10 | 39.95004 | 53.18220 | 34028 ft | 478 kts | 301° |
| 2026-04-11 04:10 | 39.98785 | 53.11071 | 34027 ft | 478 kts | 301° |
| 2026-04-11 04:11 | 40.02565 | 53.03909 | 34039 ft | 478 kts | 300° |
| 2026-04-11 04:11 | 40.06309 | 52.96811 | 34035 ft | 477 kts | 300° |
| 2026-04-11 04:12 | 40.10085 | 52.89671 | 34037 ft | 477 kts | 300° |
| 2026-04-11 04:12 | 40.13853 | 52.82532 | 34048 ft | 476 kts | 300° |
| 2026-04-11 04:13 | 40.17604 | 52.75400 | 34031 ft | 476 kts | 299° |
| 2026-04-11 04:13 | 40.21323 | 52.68313 | 34033 ft | 475 kts | 299° |
| 2026-04-11 04:14 | 40.24877 | 52.61049 | 34030 ft | 470 kts | 292° |
| 2026-04-11 04:14 | 40.27343 | 52.53206 | 34031 ft | 462 kts | 282° |
| 2026-04-11 04:15 | 40.29697 | 52.41062 | 34024 ft | 460 kts | 279° |
| 2026-04-11 04:16 | 40.31258 | 52.32922 | 34020 ft | 460 kts | 279° |
| 2026-04-11 04:16 | 40.32803 | 52.24769 | 34013 ft | 460 kts | 279° |
| 2026-04-11 04:17 | 40.34335 | 52.16639 | 34018 ft | 461 kts | 279° |
| 2026-04-11 04:17 | 40.35866 | 52.08477 | 34018 ft | 461 kts | 279° |
| 2026-04-11 04:18 | 40.37385 | 52.00348 | 34029 ft | 461 kts | 279° |
| 2026-04-11 04:18 | 40.38909 | 51.92152 | 34037 ft | 462 kts | 279° |
| 2026-04-11 04:19 | 40.40430 | 51.83946 | 34042 ft | 462 kts | 279° |
| 2026-04-11 04:19 | 40.41943 | 51.75742 | 34046 ft | 463 kts | 279° |
| 2026-04-11 04:20 | 40.43455 | 51.67503 | 34043 ft | 464 kts | 279° |
| 2026-04-11 04:20 | 40.44955 | 51.59306 | 34052 ft | 465 kts | 279° |
| 2026-04-11 04:21 | 40.46447 | 51.51038 | 34055 ft | 465 kts | 277° |
| 2026-04-11 04:21 | 40.47340 | 51.42658 | 34065 ft | 462 kts | 273° |
| 2026-04-11 04:22 | 40.48130 | 51.34285 | 34065 ft | 462 kts | 273° |
| 2026-04-11 04:22 | 40.48919 | 51.25893 | 34067 ft | 462 kts | 273° |
| 2026-04-11 04:23 | 40.49693 | 51.17519 | 34070 ft | 462 kts | 273° |
| 2026-04-11 04:23 | 40.50462 | 51.09135 | 34068 ft | 462 kts | 273° |
| 2026-04-11 04:24 | 40.51221 | 51.00791 | 34065 ft | 462 kts | 273° |
| 2026-04-11 04:24 | 40.51979 | 50.92391 | 34066 ft | 462 kts | 273° |
| 2026-04-11 04:25 | 40.52968 | 50.84081 | 34066 ft | 463 kts | 276° |
| 2026-04-11 04:25 | 40.54143 | 50.75736 | 34074 ft | 463 kts | 276° |
| 2026-04-11 04:26 | 40.55261 | 50.67399 | 34075 ft | 463 kts | 276° |
| 2026-04-11 04:26 | 40.56349 | 50.59062 | 34076 ft | 462 kts | 276° |
| 2026-04-11 04:27 | 40.57428 | 50.50727 | 34073 ft | 462 kts | 276° |
| 2026-04-11 04:27 | 40.58496 | 50.42431 | 34087 ft | 462 kts | 275° |
| 2026-04-11 04:28 | 40.59566 | 50.34069 | 34072 ft | 462 kts | 275° |
| 2026-04-11 04:28 | 40.60100 | 50.29880 | 34183 ft | 466 kts | 275° |
| 2026-04-11 04:28 | 40.60633 | 50.25686 | 34711 ft | 464 kts | 275° |
| 2026-04-11 04:28 | 40.61165 | 50.21492 | 35270 ft | 462 kts | 275° |
| 2026-04-11 04:29 | 40.61692 | 50.17325 | 35790 ft | 461 kts | 275° |
| 2026-04-11 04:29 | 40.62215 | 50.13167 | 36248 ft | 460 kts | 275° |
| 2026-04-11 04:29 | 40.62731 | 50.09062 | 36763 ft | 459 kts | 275° |
| 2026-04-11 04:29 | 40.63250 | 50.04912 | 37275 ft | 457 kts | 275° |
| 2026-04-11 04:30 | 40.63769 | 50.00754 | 37716 ft | 458 kts | 275° |
| 2026-04-11 04:30 | 40.64283 | 49.96621 | 38207 ft | 457 kts | 275° |
| 2026-04-11 04:30 | 40.64795 | 49.92495 | 38709 ft | 456 kts | 275° |
| 2026-04-11 04:30 | 40.65304 | 49.88380 | 39073 ft | 455 kts | 275° |
| 2026-04-11 04:31 | 40.65811 | 49.84266 | 39377 ft | 456 kts | 275° |
| 2026-04-11 04:31 | 40.66317 | 49.80146 | 39678 ft | 456 kts | 275° |
| 2026-04-11 04:31 | 40.66818 | 49.76054 | 39964 ft | 457 kts | 275° |
| 2026-04-11 04:31 | 40.67326 | 49.71886 | 40081 ft | 463 kts | 275° |
| 2026-04-11 04:32 | 40.67833 | 49.67736 | 40078 ft | 454 kts | 275° |
| 2026-04-11 04:32 | 40.68829 | 49.59529 | 40075 ft | 455 kts | 275° |
| 2026-04-11 04:33 | 40.69818 | 49.51320 | 40082 ft | 456 kts | 275° |
| 2026-04-11 04:33 | 40.70806 | 49.43056 | 40075 ft | 456 kts | 275° |
| 2026-04-11 04:34 | 40.71784 | 49.34792 | 40077 ft | 456 kts | 275° |
| 2026-04-11 04:34 | 40.72510 | 49.26509 | 40077 ft | 453 kts | 268° |
| 2026-04-11 04:35 | 40.72341 | 49.18283 | 40086 ft | 450 kts | 261° |
| 2026-04-11 04:35 | 40.71627 | 49.11476 | 40078 ft | 450 kts | 258° |
| 2026-04-11 04:36 | 40.70743 | 49.03307 | 40084 ft | 450 kts | 258° |
| 2026-04-11 04:36 | 40.69850 | 48.95128 | 40076 ft | 450 kts | 258° |
| 2026-04-11 04:37 | 40.68947 | 48.86976 | 40070 ft | 449 kts | 258° |
| 2026-04-11 04:37 | 40.68042 | 48.78875 | 40060 ft | 448 kts | 258° |
| 2026-04-11 04:38 | 40.67127 | 48.70739 | 40046 ft | 448 kts | 258° |
| 2026-04-11 04:38 | 40.66207 | 48.62605 | 40044 ft | 449 kts | 258° |
| 2026-04-11 04:39 | 40.65284 | 48.54506 | 40041 ft | 450 kts | 258° |
| 2026-04-11 04:39 | 40.64348 | 48.46342 | 40042 ft | 451 kts | 258° |
| 2026-04-11 04:40 | 40.63408 | 48.38198 | 40048 ft | 452 kts | 258° |
| 2026-04-11 04:40 | 40.62459 | 48.30018 | 40052 ft | 452 kts | 258° |
| 2026-04-11 04:41 | 40.61501 | 48.21818 | 40058 ft | 453 kts | 258° |
| 2026-04-11 04:41 | 40.60537 | 48.13610 | 40060 ft | 453 kts | 258° |
| 2026-04-11 04:42 | 40.59574 | 48.05440 | 40066 ft | 453 kts | 258° |
| 2026-04-11 04:42 | 40.58664 | 47.97224 | 40067 ft | 455 kts | 261° |
| 2026-04-11 04:43 | 40.58518 | 47.88879 | 40075 ft | 458 kts | 269° |
| 2026-04-11 04:43 | 40.58820 | 47.80546 | 40071 ft | 458 kts | 268° |
| 2026-04-11 04:44 | 40.59086 | 47.72179 | 40064 ft | 457 kts | 268° |
| 2026-04-11 04:44 | 40.59347 | 47.63817 | 40070 ft | 457 kts | 268° |
| 2026-04-11 04:45 | 40.59603 | 47.55451 | 40083 ft | 456 kts | 268° |
| 2026-04-11 04:45 | 40.59853 | 47.47101 | 40075 ft | 456 kts | 268° |
| 2026-04-11 04:46 | 40.60097 | 47.38777 | 40070 ft | 455 kts | 268° |
| 2026-04-11 04:46 | 40.60333 | 47.30503 | 40067 ft | 455 kts | 268° |
| 2026-04-11 04:47 | 40.60564 | 47.22172 | 40064 ft | 455 kts | 268° |
| 2026-04-11 04:47 | 40.61119 | 47.13850 | 40072 ft | 459 kts | 274° |
| 2026-04-11 04:48 | 40.61988 | 47.05587 | 40081 ft | 458 kts | 274° |
| 2026-04-11 04:48 | 40.62839 | 46.97267 | 40071 ft | 458 kts | 274° |
| 2026-04-11 04:49 | 40.63684 | 46.88942 | 40067 ft | 458 kts | 274° |
| 2026-04-11 04:49 | 40.64521 | 46.80639 | 40061 ft | 457 kts | 273° |
| 2026-04-11 04:50 | 40.65348 | 46.72374 | 40058 ft | 457 kts | 273° |
| 2026-04-11 04:50 | 40.66173 | 46.64064 | 40088 ft | 457 kts | 273° |
| 2026-04-11 04:51 | 40.66993 | 46.55749 | 40083 ft | 457 kts | 273° |
| 2026-04-11 04:51 | 40.67807 | 46.47442 | 40081 ft | 457 kts | 273° |
| 2026-04-11 04:52 | 40.68611 | 46.39159 | 40078 ft | 456 kts | 273° |
| 2026-04-11 04:52 | 40.69404 | 46.30934 | 40074 ft | 455 kts | 273° |
| 2026-04-11 04:53 | 40.70200 | 46.22611 | 40081 ft | 455 kts | 273° |
| 2026-04-11 04:53 | 40.70980 | 46.14390 | 40079 ft | 454 kts | 273° |
| 2026-04-11 04:54 | 40.71761 | 46.06111 | 40071 ft | 454 kts | 273° |
| 2026-04-11 04:54 | 40.72533 | 45.97837 | 40070 ft | 453 kts | 273° |
| 2026-04-11 04:55 | 40.73293 | 45.89645 | 40061 ft | 453 kts | 273° |
| 2026-04-11 04:55 | 40.74052 | 45.81398 | 40064 ft | 453 kts | 272° |
| 2026-04-11 04:56 | 40.74807 | 45.73112 | 40073 ft | 454 kts | 272° |
| 2026-04-11 04:56 | 40.75556 | 45.64843 | 40063 ft | 454 kts | 272° |
| 2026-04-11 04:57 | 40.76300 | 45.56557 | 40066 ft | 454 kts | 272° |
| 2026-04-11 04:57 | 40.76963 | 45.48313 | 40083 ft | 452 kts | 269° |
| 2026-04-11 04:58 | 40.77323 | 45.40006 | 40057 ft | 454 kts | 270° |
| 2026-04-11 04:58 | 40.77719 | 45.31671 | 40068 ft | 455 kts | 269° |
| 2026-04-11 04:59 | 40.78100 | 45.23333 | 40071 ft | 456 kts | 269° |
| 2026-04-11 04:59 | 40.78470 | 45.15028 | 40074 ft | 456 kts | 269° |
| 2026-04-11 05:00 | 40.78836 | 45.06663 | 40097 ft | 456 kts | 269° |
| 2026-04-11 05:00 | 40.79196 | 44.98299 | 40086 ft | 457 kts | 269° |
| 2026-04-11 05:01 | 40.79547 | 44.89958 | 40084 ft | 457 kts | 270° |
| 2026-04-11 05:01 | 40.79896 | 44.81571 | 40089 ft | 458 kts | 270° |
| 2026-04-11 05:02 | 40.80239 | 44.73178 | 40080 ft | 457 kts | 270° |
| 2026-04-11 05:02 | 40.80573 | 44.64845 | 40088 ft | 456 kts | 270° |
| 2026-04-11 05:03 | 40.80903 | 44.56490 | 40072 ft | 457 kts | 270° |
| 2026-04-11 05:03 | 40.81228 | 44.48101 | 40070 ft | 456 kts | 270° |
| 2026-04-11 05:04 | 40.81546 | 44.39735 | 40048 ft | 456 kts | 270° |
| 2026-04-11 05:04 | 40.81856 | 44.31376 | 40050 ft | 456 kts | 270° |
| 2026-04-11 05:05 | 40.82310 | 44.18835 | 40042 ft | 457 kts | 270° |
| 2026-04-11 05:05 | 40.82607 | 44.10432 | 40042 ft | 458 kts | 269° |
| 2026-04-11 05:06 | 40.82899 | 44.02025 | 40037 ft | 459 kts | 269° |
| 2026-04-11 05:06 | 40.83185 | 43.93571 | 40043 ft | 460 kts | 269° |
| 2026-04-11 05:07 | 40.83465 | 43.85179 | 40063 ft | 460 kts | 269° |
| 2026-04-11 05:07 | 40.83741 | 43.76726 | 40063 ft | 460 kts | 269° |
| 2026-04-11 05:08 | 40.84010 | 43.68283 | 40070 ft | 458 kts | 269° |
| 2026-04-11 05:08 | 40.84429 | 43.59931 | 40053 ft | 458 kts | 271° |
| 2026-04-11 05:09 | 40.84938 | 43.51552 | 40048 ft | 457 kts | 271° |
| 2026-04-11 05:09 | 40.85415 | 43.43184 | 40041 ft | 456 kts | 271° |
| 2026-04-11 05:10 | 40.85869 | 43.34855 | 40052 ft | 454 kts | 270° |
| 2026-04-11 05:10 | 40.86314 | 43.26543 | 40044 ft | 452 kts | 270° |
| 2026-04-11 05:11 | 40.86750 | 43.18293 | 40023 ft | 451 kts | 270° |
| 2026-04-11 05:11 | 40.87181 | 43.10023 | 40020 ft | 451 kts | 270° |
| 2026-04-11 05:12 | 40.87606 | 43.01752 | 40010 ft | 451 kts | 270° |
| 2026-04-11 05:12 | 40.88022 | 42.93540 | 40008 ft | 451 kts | 270° |
| 2026-04-11 05:13 | 40.88436 | 42.85269 | 40012 ft | 451 kts | 270° |
| 2026-04-11 05:13 | 40.88844 | 42.76977 | 40027 ft | 451 kts | 270° |
| 2026-04-11 05:14 | 40.89247 | 42.68683 | 40034 ft | 451 kts | 270° |
| 2026-04-11 05:14 | 40.89644 | 42.60397 | 40034 ft | 452 kts | 270° |
| 2026-04-11 05:15 | 40.90032 | 42.52158 | 40040 ft | 451 kts | 270° |
| 2026-04-11 05:15 | 40.90415 | 42.43864 | 40032 ft | 452 kts | 270° |
| 2026-04-11 05:16 | 40.90796 | 42.35537 | 40050 ft | 453 kts | 270° |
| 2026-04-11 05:16 | 40.91169 | 42.27247 | 40069 ft | 454 kts | 270° |
| 2026-04-11 05:17 | 40.91538 | 42.18905 | 40089 ft | 454 kts | 270° |
| 2026-04-11 05:17 | 40.91902 | 42.10560 | 40087 ft | 454 kts | 269° |
| 2026-04-11 05:18 | 40.92259 | 42.02212 | 40093 ft | 455 kts | 269° |
| 2026-04-11 05:18 | 40.92611 | 41.93843 | 40095 ft | 455 kts | 269° |
| 2026-04-11 05:19 | 40.92954 | 41.85530 | 40103 ft | 455 kts | 269° |
| 2026-04-11 05:19 | 40.93293 | 41.77165 | 40105 ft | 455 kts | 269° |
| 2026-04-11 05:20 | 40.93628 | 41.68786 | 40118 ft | 456 kts | 269° |
| 2026-04-11 05:20 | 40.93954 | 41.60436 | 40115 ft | 457 kts | 269° |
| 2026-04-11 05:21 | 40.94278 | 41.52041 | 40116 ft | 457 kts | 269° |
| 2026-04-11 05:21 | 40.94595 | 41.43612 | 40113 ft | 457 kts | 269° |
| 2026-04-11 05:22 | 40.94903 | 41.35277 | 40109 ft | 457 kts | 269° |
| 2026-04-11 05:22 | 40.95207 | 41.26869 | 40112 ft | 456 kts | 269° |
| 2026-04-11 05:23 | 40.95506 | 41.18468 | 40106 ft | 457 kts | 269° |
| 2026-04-11 05:23 | 40.95797 | 41.10069 | 40114 ft | 457 kts | 269° |
| 2026-04-11 05:24 | 40.96083 | 41.01703 | 40130 ft | 458 kts | 269° |
| 2026-04-11 05:24 | 40.96318 | 40.94686 | 40128 ft | 458 kts | 269° |
| 2026-04-11 05:25 | 40.96598 | 40.86253 | 40144 ft | 458 kts | 269° |
| 2026-04-11 05:25 | 40.96865 | 40.77792 | 40142 ft | 460 kts | 269° |
| 2026-04-11 05:26 | 40.97126 | 40.69342 | 40152 ft | 459 kts | 269° |
| 2026-04-11 05:26 | 40.97382 | 40.60932 | 40151 ft | 460 kts | 269° |
| 2026-04-11 05:27 | 40.97634 | 40.52459 | 40153 ft | 461 kts | 269° |
| 2026-04-11 05:27 | 40.97881 | 40.43972 | 40149 ft | 461 kts | 269° |
| 2026-04-11 05:28 | 40.98121 | 40.35473 | 40153 ft | 461 kts | 269° |
| 2026-04-11 05:28 | 40.98354 | 40.27034 | 40148 ft | 461 kts | 269° |
| 2026-04-11 05:29 | 40.98581 | 40.18541 | 40157 ft | 461 kts | 268° |
| 2026-04-11 05:29 | 40.98799 | 40.10044 | 40166 ft | 461 kts | 268° |
| 2026-04-11 05:30 | 40.99011 | 40.01558 | 40191 ft | 461 kts | 268° |
| 2026-04-11 05:30 | 40.99216 | 39.93056 | 40179 ft | 461 kts | 268° |
| 2026-04-11 05:31 | 40.99415 | 39.84619 | 40179 ft | 461 kts | 268° |
| 2026-04-11 05:31 | 40.99844 | 39.76132 | 40177 ft | 463 kts | 274° |
| 2026-04-11 05:32 | 41.00683 | 39.67668 | 40176 ft | 463 kts | 274° |
| 2026-04-11 05:32 | 41.01489 | 39.59209 | 40179 ft | 464 kts | 274° |
| 2026-04-11 05:33 | 41.02288 | 39.50768 | 40165 ft | 464 kts | 274° |
| 2026-04-11 05:33 | 41.03086 | 39.42275 | 40162 ft | 465 kts | 273° |
| 2026-04-11 05:34 | 41.03881 | 39.33770 | 40157 ft | 465 kts | 273° |
| 2026-04-11 05:34 | 41.04670 | 39.25238 | 40162 ft | 465 kts | 273° |
| 2026-04-11 05:35 | 41.05448 | 39.16768 | 40161 ft | 465 kts | 273° |
| 2026-04-11 05:35 | 41.06229 | 39.08249 | 40160 ft | 465 kts | 273° |
| 2026-04-11 05:36 | 41.07018 | 38.99741 | 40160 ft | 465 kts | 273° |
| 2026-04-11 05:36 | 41.07795 | 38.91278 | 40157 ft | 465 kts | 273° |
| 2026-04-11 05:37 | 41.08569 | 38.82755 | 40125 ft | 466 kts | 273° |
| 2026-04-11 05:37 | 41.09338 | 38.74207 | 40125 ft | 467 kts | 273° |
| 2026-04-11 05:38 | 41.10100 | 38.65639 | 40130 ft | 468 kts | 273° |
| 2026-04-11 05:38 | 41.10832 | 38.57096 | 40141 ft | 469 kts | 273° |
| 2026-04-11 05:39 | 41.11552 | 38.48484 | 40152 ft | 471 kts | 273° |
| 2026-04-11 05:39 | 41.12271 | 38.39830 | 40159 ft | 471 kts | 273° |
| 2026-04-11 05:40 | 41.12985 | 38.31177 | 40171 ft | 472 kts | 273° |
| 2026-04-11 05:40 | 41.13691 | 38.22567 | 40175 ft | 472 kts | 273° |
| 2026-04-11 05:41 | 41.14400 | 38.13906 | 40181 ft | 472 kts | 273° |
| 2026-04-11 05:41 | 41.15103 | 38.05222 | 40187 ft | 472 kts | 274° |
| 2026-04-11 05:42 | 41.15795 | 37.96608 | 40182 ft | 472 kts | 273° |
| 2026-04-11 05:42 | 41.16483 | 37.87949 | 40173 ft | 471 kts | 273° |
| 2026-04-11 05:43 | 41.17210 | 37.79303 | 40165 ft | 471 kts | 274° |
| 2026-04-11 05:43 | 41.17951 | 37.70675 | 40148 ft | 471 kts | 274° |
| 2026-04-11 05:44 | 41.18679 | 37.62035 | 40150 ft | 471 kts | 274° |
| 2026-04-11 05:44 | 41.19192 | 37.53362 | 40148 ft | 470 kts | 271° |
| 2026-04-11 05:45 | 41.19777 | 37.44745 | 40145 ft | 471 kts | 274° |
| 2026-04-11 05:45 | 41.20442 | 37.36074 | 40159 ft | 472 kts | 274° |
| 2026-04-11 05:46 | 41.21085 | 37.27429 | 40149 ft | 473 kts | 274° |
| 2026-04-11 05:46 | 41.21730 | 37.18687 | 40163 ft | 474 kts | 274° |
| 2026-04-11 05:47 | 41.22411 | 37.10018 | 40171 ft | 475 kts | 274° |
| 2026-04-11 05:47 | 41.23092 | 37.01272 | 40175 ft | 475 kts | 274° |
| 2026-04-11 05:48 | 41.23759 | 36.92529 | 40177 ft | 476 kts | 274° |
| 2026-04-11 05:48 | 41.24417 | 36.83822 | 40184 ft | 476 kts | 274° |
| 2026-04-11 05:49 | 41.25071 | 36.75064 | 40195 ft | 475 kts | 274° |
| 2026-04-11 05:49 | 41.25719 | 36.66313 | 40192 ft | 475 kts | 274° |
| 2026-04-11 05:50 | 41.26457 | 36.57559 | 40185 ft | 476 kts | 278° |
| 2026-04-11 05:50 | 41.28038 | 36.49055 | 40171 ft | 478 kts | 287° |
| 2026-04-11 05:51 | 41.30195 | 36.40685 | 40162 ft | 478 kts | 287° |
| 2026-04-11 05:51 | 41.32322 | 36.32297 | 40158 ft | 478 kts | 287° |
| 2026-04-11 05:52 | 41.34443 | 36.23911 | 40150 ft | 478 kts | 287° |
| 2026-04-11 05:52 | 41.36553 | 36.15554 | 40150 ft | 478 kts | 287° |
| 2026-04-11 05:53 | 41.38669 | 36.07148 | 40143 ft | 478 kts | 287° |
| 2026-04-11 05:53 | 41.40782 | 35.98722 | 40134 ft | 479 kts | 287° |
| 2026-04-11 05:54 | 41.42888 | 35.90291 | 40132 ft | 480 kts | 287° |
| 2026-04-11 05:54 | 41.44980 | 35.81888 | 40138 ft | 480 kts | 287° |
| 2026-04-11 05:55 | 41.47078 | 35.73434 | 40134 ft | 480 kts | 287° |
| 2026-04-11 05:55 | 41.49172 | 35.64962 | 40130 ft | 480 kts | 287° |
| 2026-04-11 05:56 | 41.51254 | 35.56510 | 40134 ft | 480 kts | 287° |
| 2026-04-11 05:56 | 41.53331 | 35.48044 | 40137 ft | 480 kts | 287° |
| 2026-04-11 05:57 | 41.55395 | 35.39607 | 40131 ft | 479 kts | 287° |
| 2026-04-11 05:57 | 41.57462 | 35.31118 | 40141 ft | 480 kts | 287° |
| 2026-04-11 05:58 | 41.59507 | 35.22695 | 40143 ft | 479 kts | 287° |
| 2026-04-11 05:58 | 41.61556 | 35.14223 | 40143 ft | 479 kts | 287° |
| 2026-04-11 05:59 | 41.63598 | 35.05747 | 40145 ft | 479 kts | 287° |
| 2026-04-11 05:59 | 41.65635 | 34.97266 | 40145 ft | 478 kts | 287° |
| 2026-04-11 06:00 | 41.67663 | 34.88787 | 40148 ft | 478 kts | 287° |
| 2026-04-11 06:00 | 41.69673 | 34.80354 | 40149 ft | 478 kts | 287° |
| 2026-04-11 06:01 | 41.71688 | 34.71864 | 40148 ft | 478 kts | 287° |
| 2026-04-11 06:01 | 41.73696 | 34.63378 | 40152 ft | 478 kts | 287° |
| 2026-04-11 06:02 | 41.75700 | 34.54885 | 40153 ft | 478 kts | 287° |
| 2026-04-11 06:02 | 41.77693 | 34.46385 | 40149 ft | 478 kts | 287° |
| 2026-04-11 06:03 | 41.79681 | 34.37881 | 40159 ft | 478 kts | 287° |
| 2026-04-11 06:03 | 41.81653 | 34.29420 | 40160 ft | 478 kts | 287° |
| 2026-04-11 06:04 | 41.83634 | 34.20886 | 40164 ft | 478 kts | 287° |
| 2026-04-11 06:04 | 41.85603 | 34.12368 | 40171 ft | 478 kts | 287° |
| 2026-04-11 06:05 | 41.87555 | 34.03894 | 40167 ft | 478 kts | 287° |
| 2026-04-11 06:05 | 41.89512 | 33.95368 | 40167 ft | 477 kts | 287° |
| 2026-04-11 06:06 | 41.92425 | 33.82615 | 40173 ft | 477 kts | 287° |
| 2026-04-11 06:07 | 41.94366 | 33.74073 | 40176 ft | 477 kts | 287° |
| 2026-04-11 06:07 | 41.96225 | 33.65512 | 40175 ft | 477 kts | 284° |
| 2026-04-11 06:08 | 41.97846 | 33.56850 | 40179 ft | 477 kts | 284° |
| 2026-04-11 06:08 | 41.99467 | 33.48248 | 40185 ft | 477 kts | 284° |
| 2026-04-11 06:09 | 42.01117 | 33.39599 | 40190 ft | 477 kts | 284° |
| 2026-04-11 06:09 | 42.02764 | 33.30956 | 40193 ft | 476 kts | 284° |
| 2026-04-11 06:10 | 42.04403 | 33.22319 | 40192 ft | 476 kts | 284° |
| 2026-04-11 06:10 | 42.06020 | 33.13752 | 40184 ft | 475 kts | 284° |
| 2026-04-11 06:11 | 42.07654 | 33.05113 | 40185 ft | 475 kts | 285° |
| 2026-04-11 06:11 | 42.09421 | 32.96539 | 40181 ft | 474 kts | 286° |
| 2026-04-11 06:12 | 42.11179 | 32.88043 | 40179 ft | 474 kts | 286° |
| 2026-04-11 06:12 | 42.12927 | 32.79465 | 40180 ft | 474 kts | 286° |
| 2026-04-11 06:13 | 42.14372 | 32.72330 | 40182 ft | 474 kts | 286° |
| 2026-04-11 06:13 | 42.16107 | 32.63728 | 40182 ft | 474 kts | 286° |
| 2026-04-11 06:14 | 42.17821 | 32.55189 | 40180 ft | 474 kts | 286° |
| 2026-04-11 06:14 | 42.19536 | 32.46595 | 40182 ft | 474 kts | 285° |
| 2026-04-11 06:15 | 42.21234 | 32.38049 | 40181 ft | 474 kts | 285° |
| 2026-04-11 06:15 | 42.22934 | 32.29462 | 40181 ft | 474 kts | 285° |
| 2026-04-11 06:16 | 42.24630 | 32.20854 | 40180 ft | 474 kts | 285° |
| 2026-04-11 06:16 | 42.26316 | 32.12230 | 40185 ft | 474 kts | 285° |
| 2026-04-11 06:17 | 42.27997 | 32.03620 | 40180 ft | 474 kts | 285° |
| 2026-04-11 06:17 | 42.29680 | 31.95003 | 40182 ft | 474 kts | 285° |
| 2026-04-11 06:18 | 42.31355 | 31.86385 | 40174 ft | 474 kts | 286° |
| 2026-04-11 06:18 | 42.33010 | 31.77823 | 40188 ft | 474 kts | 286° |
| 2026-04-11 06:19 | 42.34670 | 31.69198 | 40184 ft | 473 kts | 286° |
| 2026-04-11 06:19 | 42.36320 | 31.60586 | 40190 ft | 472 kts | 286° |
| 2026-04-11 06:20 | 42.37960 | 31.51992 | 40191 ft | 471 kts | 286° |
| 2026-04-11 06:20 | 42.39580 | 31.43459 | 40187 ft | 471 kts | 286° |
| 2026-04-11 06:21 | 42.41200 | 31.34892 | 40183 ft | 470 kts | 286° |
| 2026-04-11 06:21 | 42.42817 | 31.26306 | 40181 ft | 469 kts | 286° |
| 2026-04-11 06:22 | 42.44423 | 31.17736 | 40195 ft | 469 kts | 286° |
| 2026-04-11 06:22 | 42.46024 | 31.09156 | 40189 ft | 468 kts | 286° |
| 2026-04-11 06:23 | 42.47603 | 31.00641 | 40188 ft | 468 kts | 286° |
| 2026-04-11 06:23 | 42.49180 | 30.92096 | 40182 ft | 468 kts | 286° |
| 2026-04-11 06:24 | 42.50753 | 30.83533 | 40194 ft | 467 kts | 286° |
| 2026-04-11 06:24 | 42.52310 | 30.75017 | 40189 ft | 467 kts | 286° |
| 2026-04-11 06:25 | 42.53867 | 30.66468 | 40187 ft | 467 kts | 285° |
| 2026-04-11 06:25 | 42.55419 | 30.57907 | 40188 ft | 467 kts | 285° |
| 2026-04-11 06:26 | 42.56954 | 30.49398 | 40189 ft | 467 kts | 285° |
| 2026-04-11 06:26 | 42.58491 | 30.40841 | 40191 ft | 467 kts | 285° |
| 2026-04-11 06:27 | 42.60169 | 30.32341 | 40189 ft | 465 kts | 291° |
| 2026-04-11 06:27 | 42.62805 | 30.24333 | 40188 ft | 463 kts | 300° |
| 2026-04-11 06:28 | 42.66358 | 30.17114 | 40188 ft | 461 kts | 309° |
| 2026-04-11 06:28 | 42.70291 | 30.10209 | 40187 ft | 462 kts | 308° |
| 2026-04-11 06:29 | 42.74201 | 30.03284 | 40189 ft | 462 kts | 308° |
| 2026-04-11 06:29 | 42.78117 | 29.96340 | 40182 ft | 462 kts | 308° |
| 2026-04-11 06:30 | 42.82023 | 29.89400 | 40196 ft | 461 kts | 308° |
| 2026-04-11 06:30 | 42.85902 | 29.82494 | 40194 ft | 461 kts | 308° |
| 2026-04-11 06:31 | 42.89797 | 29.75543 | 40194 ft | 461 kts | 308° |
| 2026-04-11 06:31 | 42.93681 | 29.68594 | 40194 ft | 460 kts | 308° |
| 2026-04-11 06:32 | 42.97557 | 29.61645 | 40184 ft | 460 kts | 308° |
| 2026-04-11 06:32 | 43.01438 | 29.54669 | 40184 ft | 460 kts | 308° |
| 2026-04-11 06:33 | 43.05308 | 29.47696 | 40184 ft | 460 kts | 308° |
| 2026-04-11 06:33 | 43.09153 | 29.40753 | 40186 ft | 460 kts | 308° |
| 2026-04-11 06:34 | 43.13023 | 29.33749 | 40186 ft | 461 kts | 308° |
| 2026-04-11 06:34 | 43.16865 | 29.26779 | 40185 ft | 461 kts | 308° |
| 2026-04-11 06:35 | 43.20726 | 29.19756 | 40190 ft | 460 kts | 308° |
| 2026-04-11 06:35 | 43.24583 | 29.12724 | 40191 ft | 460 kts | 308° |
| 2026-04-11 06:36 | 43.28427 | 29.05702 | 40191 ft | 460 kts | 308° |
| 2026-04-11 06:36 | 43.32249 | 28.98701 | 40187 ft | 460 kts | 308° |
| 2026-04-11 06:37 | 43.36079 | 28.91667 | 40190 ft | 458 kts | 308° |
| 2026-04-11 06:37 | 43.39902 | 28.84632 | 40177 ft | 459 kts | 308° |
| 2026-04-11 06:38 | 43.43703 | 28.77621 | 40174 ft | 459 kts | 308° |
| 2026-04-11 06:38 | 43.47528 | 28.70547 | 40160 ft | 459 kts | 308° |
| 2026-04-11 06:39 | 43.51337 | 28.63486 | 40181 ft | 458 kts | 308° |
| 2026-04-11 06:39 | 43.55110 | 28.56476 | 40187 ft | 458 kts | 308° |
| 2026-04-11 06:40 | 43.58906 | 28.49405 | 40180 ft | 458 kts | 308° |
| 2026-04-11 06:40 | 43.62684 | 28.42350 | 40178 ft | 457 kts | 308° |
| 2026-04-11 06:41 | 43.66464 | 28.35276 | 40175 ft | 457 kts | 308° |
| 2026-04-11 06:41 | 43.70237 | 28.28197 | 40166 ft | 457 kts | 308° |
| 2026-04-11 06:42 | 43.73979 | 28.21160 | 40163 ft | 456 kts | 308° |
| 2026-04-11 06:42 | 43.77730 | 28.14089 | 40159 ft | 455 kts | 308° |
| 2026-04-11 06:43 | 43.81475 | 28.07012 | 40153 ft | 456 kts | 308° |
| 2026-04-11 06:43 | 43.85220 | 27.99918 | 40149 ft | 456 kts | 308° |
| 2026-04-11 06:44 | 43.88941 | 27.92852 | 40150 ft | 456 kts | 308° |
| 2026-04-11 06:44 | 43.92680 | 27.85735 | 40158 ft | 455 kts | 308° |
| 2026-04-11 06:45 | 43.96391 | 27.78653 | 40157 ft | 455 kts | 308° |
| 2026-04-11 06:45 | 44.00116 | 27.71529 | 40158 ft | 455 kts | 307° |
| 2026-04-11 06:46 | 44.03835 | 27.64398 | 40156 ft | 455 kts | 308° |
| 2026-04-11 06:46 | 44.07546 | 27.57264 | 40164 ft | 455 kts | 307° |
| 2026-04-11 06:47 | 44.11229 | 27.50168 | 40159 ft | 454 kts | 307° |
| 2026-04-11 06:47 | 44.14926 | 27.43025 | 40154 ft | 454 kts | 307° |
| 2026-04-11 06:48 | 44.18613 | 27.35886 | 40149 ft | 453 kts | 307° |
| 2026-04-11 06:48 | 44.22291 | 27.28747 | 40136 ft | 453 kts | 307° |
| 2026-04-11 06:49 | 44.25968 | 27.21591 | 40128 ft | 453 kts | 307° |
| 2026-04-11 06:49 | 44.29615 | 27.14478 | 40128 ft | 453 kts | 307° |
| 2026-04-11 06:50 | 44.33285 | 27.07301 | 40147 ft | 453 kts | 307° |
| 2026-04-11 06:50 | 44.36945 | 27.00126 | 40145 ft | 453 kts | 307° |
| 2026-04-11 06:51 | 44.40573 | 26.92995 | 40144 ft | 453 kts | 307° |
| 2026-04-11 06:51 | 44.44234 | 26.85783 | 40147 ft | 453 kts | 307° |
| 2026-04-11 06:52 | 44.47877 | 26.78588 | 40147 ft | 453 kts | 307° |
| 2026-04-11 06:52 | 44.51512 | 26.71391 | 40147 ft | 453 kts | 307° |
| 2026-04-11 06:53 | 44.55131 | 26.64216 | 40143 ft | 453 kts | 307° |
| 2026-04-11 06:53 | 44.58664 | 26.56853 | 40142 ft | 454 kts | 303° |
| 2026-04-11 06:54 | 44.61592 | 26.49036 | 40145 ft | 456 kts | 297° |
| 2026-04-11 06:54 | 44.64296 | 26.40990 | 40144 ft | 455 kts | 298° |
| 2026-04-11 06:55 | 44.67031 | 26.32951 | 40160 ft | 455 kts | 298° |
| 2026-04-11 06:55 | 44.69753 | 26.24890 | 40130 ft | 456 kts | 298° |
| 2026-04-11 06:56 | 44.72440 | 26.16880 | 40134 ft | 456 kts | 298° |
| 2026-04-11 06:56 | 44.75139 | 26.08805 | 40136 ft | 456 kts | 298° |
| 2026-04-11 06:57 | 44.77837 | 26.00706 | 40136 ft | 456 kts | 298° |
| 2026-04-11 06:57 | 44.80523 | 25.92621 | 40136 ft | 456 kts | 298° |
| 2026-04-11 06:58 | 44.83188 | 25.84570 | 40142 ft | 455 kts | 298° |
| 2026-04-11 06:58 | 44.85859 | 25.76477 | 40135 ft | 454 kts | 298° |
| 2026-04-11 06:59 | 44.88508 | 25.68429 | 40135 ft | 454 kts | 298° |
| 2026-04-11 06:59 | 44.91158 | 25.60353 | 40126 ft | 454 kts | 298° |
| 2026-04-11 07:00 | 44.93800 | 25.52274 | 40133 ft | 453 kts | 298° |
| 2026-04-11 07:00 | 44.95990 | 25.45562 | 40131 ft | 453 kts | 298° |
| 2026-04-11 07:01 | 44.99054 | 25.36140 | 40123 ft | 452 kts | 298° |
| 2026-04-11 07:01 | 45.01248 | 25.29371 | 40122 ft | 452 kts | 298° |
| 2026-04-11 07:02 | 45.03858 | 25.21295 | 40123 ft | 451 kts | 298° |
| 2026-04-11 07:02 | 45.06450 | 25.13253 | 40123 ft | 451 kts | 298° |
| 2026-04-11 07:03 | 45.09052 | 25.05154 | 40120 ft | 451 kts | 298° |
| 2026-04-11 07:03 | 45.11644 | 24.97059 | 40117 ft | 451 kts | 298° |
| 2026-04-11 07:04 | 45.14230 | 24.88955 | 40121 ft | 450 kts | 298° |
| 2026-04-11 07:04 | 45.16796 | 24.80896 | 40120 ft | 450 kts | 298° |
| 2026-04-11 07:05 | 45.19367 | 24.72795 | 40120 ft | 450 kts | 298° |
| 2026-04-11 07:05 | 45.21912 | 24.64746 | 40102 ft | 449 kts | 298° |
| 2026-04-11 07:06 | 45.24463 | 24.56653 | 40109 ft | 448 kts | 298° |
| 2026-04-11 07:06 | 45.27009 | 24.48553 | 40102 ft | 448 kts | 298° |
| 2026-04-11 07:07 | 45.29541 | 24.40474 | 40096 ft | 448 kts | 298° |
| 2026-04-11 07:07 | 45.32054 | 24.32432 | 40085 ft | 446 kts | 297° |
| 2026-04-11 07:08 | 45.34566 | 24.24356 | 40090 ft | 446 kts | 298° |
| 2026-04-11 07:08 | 45.37074 | 24.16277 | 40084 ft | 446 kts | 298° |
| 2026-04-11 07:09 | 45.39562 | 24.08239 | 40086 ft | 447 kts | 297° |
| 2026-04-11 07:09 | 45.42062 | 24.00133 | 40092 ft | 447 kts | 298° |
| 2026-04-11 07:10 | 45.45796 | 23.87980 | 40087 ft | 447 kts | 297° |
| 2026-04-11 07:10 | 45.48267 | 23.79904 | 40090 ft | 447 kts | 297° |
| 2026-04-11 07:11 | 45.50750 | 23.71761 | 40098 ft | 447 kts | 297° |
| 2026-04-11 07:11 | 45.53229 | 23.63606 | 40096 ft | 447 kts | 297° |
| 2026-04-11 07:12 | 45.55697 | 23.55462 | 40101 ft | 447 kts | 297° |
| 2026-04-11 07:12 | 45.58145 | 23.47361 | 40103 ft | 446 kts | 297° |
| 2026-04-11 07:13 | 45.60599 | 23.39208 | 40100 ft | 447 kts | 297° |
| 2026-04-11 07:13 | 45.63041 | 23.31075 | 40096 ft | 447 kts | 297° |
| 2026-04-11 07:14 | 45.65479 | 23.22922 | 40118 ft | 446 kts | 297° |
| 2026-04-11 07:14 | 45.67910 | 23.14773 | 40109 ft | 445 kts | 297° |
| 2026-04-11 07:15 | 45.70332 | 23.06622 | 40106 ft | 444 kts | 297° |
| 2026-04-11 07:15 | 45.72747 | 22.98469 | 40107 ft | 444 kts | 297° |
| 2026-04-11 07:16 | 45.75130 | 22.90398 | 40114 ft | 442 kts | 297° |
| 2026-04-11 07:16 | 45.77517 | 22.82285 | 40107 ft | 441 kts | 297° |
| 2026-04-11 07:17 | 45.79896 | 22.74177 | 40105 ft | 441 kts | 297° |
| 2026-04-11 07:17 | 45.82272 | 22.66054 | 40106 ft | 440 kts | 297° |
| 2026-04-11 07:18 | 45.84618 | 22.58004 | 40104 ft | 439 kts | 297° |
| 2026-04-11 07:18 | 45.86974 | 22.49896 | 40107 ft | 439 kts | 297° |
| 2026-04-11 07:19 | 45.89318 | 22.41804 | 40107 ft | 439 kts | 297° |
| 2026-04-11 07:19 | 45.91645 | 22.33739 | 40106 ft | 438 kts | 297° |
| 2026-04-11 07:20 | 45.93975 | 22.25638 | 40089 ft | 438 kts | 297° |
| 2026-04-11 07:20 | 45.96297 | 22.17537 | 40123 ft | 437 kts | 297° |
| 2026-04-11 07:21 | 45.98610 | 22.09443 | 40122 ft | 437 kts | 297° |
| 2026-04-11 07:21 | 46.00902 | 22.01399 | 40120 ft | 437 kts | 297° |
| 2026-04-11 07:22 | 46.03201 | 21.93298 | 40122 ft | 436 kts | 297° |
| 2026-04-11 07:22 | 46.05488 | 21.85214 | 40134 ft | 434 kts | 297° |
| 2026-04-11 07:23 | 46.07750 | 21.77194 | 40133 ft | 434 kts | 297° |
| 2026-04-11 07:23 | 46.10021 | 21.69116 | 40127 ft | 433 kts | 297° |
| 2026-04-11 07:24 | 46.12267 | 21.61097 | 40127 ft | 432 kts | 297° |
| 2026-04-11 07:24 | 46.14516 | 21.53043 | 40131 ft | 431 kts | 297° |
| 2026-04-11 07:25 | 46.16747 | 21.45025 | 40134 ft | 430 kts | 297° |
| 2026-04-11 07:25 | 46.18973 | 21.37001 | 40130 ft | 430 kts | 297° |
| 2026-04-11 07:26 | 46.21182 | 21.29022 | 40120 ft | 431 kts | 297° |
| 2026-04-11 07:26 | 46.23409 | 21.20959 | 40091 ft | 431 kts | 297° |
| 2026-04-11 07:27 | 46.25623 | 21.12916 | 40139 ft | 430 kts | 297° |
| 2026-04-11 07:27 | 46.27930 | 21.05025 | 40134 ft | 427 kts | 300° |
| 2026-04-11 07:28 | 46.30512 | 20.97299 | 40135 ft | 426 kts | 301° |
| 2026-04-11 07:28 | 46.33070 | 20.89550 | 40129 ft | 427 kts | 300° |
| 2026-04-11 07:29 | 46.35598 | 20.81762 | 40146 ft | 425 kts | 300° |
| 2026-04-11 07:29 | 46.38085 | 20.74049 | 40142 ft | 425 kts | 300° |
| 2026-04-11 07:30 | 46.40576 | 20.66300 | 40139 ft | 424 kts | 300° |
| 2026-04-11 07:30 | 46.43063 | 20.58535 | 40135 ft | 423 kts | 300° |
| 2026-04-11 07:31 | 46.45523 | 20.50835 | 40112 ft | 422 kts | 300° |
| 2026-04-11 07:31 | 46.47984 | 20.43106 | 40139 ft | 421 kts | 300° |
| 2026-04-11 07:32 | 46.50438 | 20.35378 | 40132 ft | 420 kts | 300° |
| 2026-04-11 07:32 | 46.52865 | 20.27713 | 40128 ft | 420 kts | 300° |
| 2026-04-11 07:33 | 46.55296 | 20.20010 | 40125 ft | 419 kts | 300° |
| 2026-04-11 07:33 | 46.57723 | 20.12298 | 40122 ft | 419 kts | 300° |
| 2026-04-11 07:34 | 46.60146 | 20.04574 | 40125 ft | 419 kts | 300° |
| 2026-04-11 07:34 | 46.62548 | 19.96893 | 40126 ft | 419 kts | 300° |
| 2026-04-11 07:35 | 46.64957 | 19.89169 | 40125 ft | 419 kts | 300° |
| 2026-04-11 07:35 | 46.67370 | 19.81410 | 40097 ft | 420 kts | 300° |
| 2026-04-11 07:36 | 46.69771 | 19.73661 | 40127 ft | 420 kts | 300° |
| 2026-04-11 07:36 | 46.72170 | 19.65896 | 40131 ft | 420 kts | 300° |
| 2026-04-11 07:37 | 46.74557 | 19.58150 | 40143 ft | 421 kts | 299° |
| 2026-04-11 07:37 | 46.76959 | 19.50324 | 40140 ft | 421 kts | 299° |
| 2026-04-11 07:38 | 46.79334 | 19.42566 | 40128 ft | 420 kts | 299° |
| 2026-04-11 07:38 | 46.81714 | 19.34765 | 40132 ft | 421 kts | 299° |
| 2026-04-11 07:39 | 46.84093 | 19.26945 | 40134 ft | 421 kts | 299° |
| 2026-04-11 07:39 | 46.86471 | 19.19102 | 40135 ft | 421 kts | 299° |
| 2026-04-11 07:40 | 46.88827 | 19.11311 | 40110 ft | 421 kts | 298° |
| 2026-04-11 07:40 | 46.91184 | 19.03490 | 40149 ft | 420 kts | 298° |
| 2026-04-11 07:41 | 46.93535 | 18.95663 | 40147 ft | 419 kts | 298° |
| 2026-04-11 07:41 | 46.95874 | 18.87853 | 40138 ft | 419 kts | 298° |
| 2026-04-11 07:42 | 46.98192 | 18.80087 | 40140 ft | 418 kts | 298° |
| 2026-04-11 07:43 | 47.01675 | 18.68379 | 40150 ft | 417 kts | 298° |
| 2026-04-11 07:43 | 47.03986 | 18.60575 | 40145 ft | 416 kts | 298° |
| 2026-04-11 07:44 | 47.06285 | 18.52788 | 40151 ft | 416 kts | 297° |
| 2026-04-11 07:44 | 47.08583 | 18.44981 | 40145 ft | 416 kts | 297° |
| 2026-04-11 07:45 | 47.10858 | 18.37229 | 40153 ft | 415 kts | 297° |
| 2026-04-11 07:45 | 47.13139 | 18.29427 | 40154 ft | 415 kts | 297° |
| 2026-04-11 07:46 | 47.15417 | 18.21616 | 40154 ft | 415 kts | 297° |
| 2026-04-11 07:46 | 47.17685 | 18.13811 | 40151 ft | 415 kts | 297° |
| 2026-04-11 07:47 | 47.19949 | 18.05996 | 40152 ft | 415 kts | 297° |
| 2026-04-11 07:47 | 47.22190 | 17.98233 | 40144 ft | 415 kts | 297° |
| 2026-04-11 07:48 | 47.24446 | 17.90398 | 40149 ft | 415 kts | 297° |
| 2026-04-11 07:48 | 47.26318 | 17.83873 | 40158 ft | 415 kts | 297° |
| 2026-04-11 07:49 | 47.28562 | 17.76030 | 40155 ft | 415 kts | 297° |
| 2026-04-11 07:49 | 47.30797 | 17.68193 | 40158 ft | 415 kts | 297° |
| 2026-04-11 07:50 | 47.33027 | 17.60350 | 40148 ft | 415 kts | 297° |
| 2026-04-11 07:50 | 47.35254 | 17.52491 | 40154 ft | 416 kts | 297° |
| 2026-04-11 07:51 | 47.37466 | 17.44660 | 40159 ft | 416 kts | 296° |
| 2026-04-11 07:51 | 47.39689 | 17.36764 | 40159 ft | 416 kts | 296° |
| 2026-04-11 07:52 | 47.41904 | 17.28870 | 40129 ft | 416 kts | 297° |
| 2026-04-11 07:52 | 47.44117 | 17.20960 | 40158 ft | 416 kts | 297° |
| 2026-04-11 07:53 | 47.46328 | 17.13028 | 40159 ft | 417 kts | 296° |
| 2026-04-11 07:53 | 47.48533 | 17.05092 | 40162 ft | 417 kts | 296° |
| 2026-04-11 07:54 | 47.50719 | 16.97197 | 40163 ft | 418 kts | 296° |
| 2026-04-11 07:54 | 47.52919 | 16.89231 | 40152 ft | 418 kts | 296° |
| 2026-04-11 07:55 | 47.55120 | 16.81249 | 40150 ft | 419 kts | 296° |
| 2026-04-11 07:55 | 47.57296 | 16.73213 | 40156 ft | 421 kts | 295° |
| 2026-04-11 07:56 | 47.59451 | 16.65217 | 40157 ft | 420 kts | 297° |
| 2026-04-11 07:56 | 47.61675 | 16.57167 | 40160 ft | 421 kts | 296° |
| 2026-04-11 07:57 | 47.63858 | 16.49160 | 40160 ft | 421 kts | 296° |
| 2026-04-11 07:57 | 47.66039 | 16.41096 | 40154 ft | 421 kts | 296° |
| 2026-04-11 07:58 | 47.68216 | 16.33013 | 40152 ft | 421 kts | 296° |
| 2026-04-11 07:58 | 47.70383 | 16.24937 | 40149 ft | 421 kts | 296° |
| 2026-04-11 07:59 | 47.72534 | 16.16891 | 40108 ft | 421 kts | 296° |
| 2026-04-11 07:59 | 47.74690 | 16.08801 | 40133 ft | 421 kts | 296° |
| 2026-04-11 08:00 | 47.76834 | 16.00728 | 40135 ft | 421 kts | 296° |
| 2026-04-11 08:00 | 47.78982 | 15.92613 | 40148 ft | 422 kts | 296° |
| 2026-04-11 08:01 | 47.81129 | 15.84469 | 40141 ft | 422 kts | 296° |
| 2026-04-11 08:01 | 47.83275 | 15.76307 | 40123 ft | 422 kts | 295° |
| 2026-04-11 08:02 | 47.85412 | 15.68146 | 40122 ft | 423 kts | 295° |
| 2026-04-11 08:02 | 47.87535 | 15.60008 | 40128 ft | 424 kts | 295° |
| 2026-04-11 08:03 | 47.89674 | 15.51787 | 40137 ft | 425 kts | 295° |
| 2026-04-11 08:03 | 47.91789 | 15.43622 | 40141 ft | 424 kts | 295° |
| 2026-04-11 08:04 | 47.93915 | 15.35392 | 40119 ft | 425 kts | 295° |
| 2026-04-11 08:04 | 47.96036 | 15.27150 | 40127 ft | 426 kts | 295° |
| 2026-04-11 08:05 | 47.98154 | 15.18881 | 40133 ft | 426 kts | 295° |
| 2026-04-11 08:05 | 48.00266 | 15.10618 | 40138 ft | 426 kts | 295° |
| 2026-04-11 08:06 | 48.02359 | 15.02394 | 40107 ft | 426 kts | 295° |
| 2026-04-11 08:06 | 48.04458 | 14.94114 | 40121 ft | 426 kts | 295° |
| 2026-04-11 08:07 | 48.06553 | 14.85823 | 40122 ft | 426 kts | 295° |
| 2026-04-11 08:07 | 48.08650 | 14.77493 | 40126 ft | 427 kts | 295° |
| 2026-04-11 08:08 | 48.11777 | 14.65012 | 40127 ft | 427 kts | 295° |
| 2026-04-11 08:08 | 48.13844 | 14.56725 | 40125 ft | 427 kts | 294° |
| 2026-04-11 08:09 | 48.15917 | 14.48378 | 40126 ft | 427 kts | 294° |
| 2026-04-11 08:09 | 48.17989 | 14.40006 | 40135 ft | 428 kts | 294° |
| 2026-04-11 08:10 | 48.20040 | 14.31694 | 40135 ft | 427 kts | 294° |
| 2026-04-11 08:10 | 48.22096 | 14.23327 | 40125 ft | 427 kts | 294° |
| 2026-04-11 08:11 | 48.24138 | 14.14984 | 40130 ft | 426 kts | 294° |
| 2026-04-11 08:11 | 48.26175 | 14.06633 | 40127 ft | 426 kts | 294° |
| 2026-04-11 08:12 | 48.28206 | 13.98271 | 40111 ft | 426 kts | 294° |
| 2026-04-11 08:12 | 48.30229 | 13.89915 | 40111 ft | 426 kts | 294° |
| 2026-04-11 08:13 | 48.32251 | 13.81530 | 40102 ft | 426 kts | 293° |
| 2026-04-11 08:13 | 48.34265 | 13.73146 | 40104 ft | 427 kts | 293° |
| 2026-04-11 08:14 | 48.36262 | 13.64798 | 40109 ft | 427 kts | 293° |
| 2026-04-11 08:14 | 48.38270 | 13.56376 | 40106 ft | 428 kts | 293° |
| 2026-04-11 08:15 | 48.40275 | 13.47932 | 40103 ft | 428 kts | 293° |
| 2026-04-11 08:15 | 48.42282 | 13.39466 | 40111 ft | 429 kts | 292° |
| 2026-04-11 08:16 | 48.44282 | 13.31061 | 40103 ft | 428 kts | 294° |
| 2026-04-11 08:16 | 48.46500 | 13.22709 | 40104 ft | 428 kts | 295° |
| 2026-04-11 08:17 | 48.48724 | 13.14415 | 40112 ft | 428 kts | 294° |
| 2026-04-11 08:17 | 48.50928 | 13.06051 | 40095 ft | 428 kts | 294° |
| 2026-04-11 08:18 | 48.53102 | 12.97748 | 40104 ft | 428 kts | 294° |
| 2026-04-11 08:18 | 48.55285 | 12.89371 | 40108 ft | 428 kts | 294° |
| 2026-04-11 08:19 | 48.57455 | 12.81018 | 40101 ft | 428 kts | 293° |
| 2026-04-11 08:19 | 48.59630 | 12.72614 | 40105 ft | 428 kts | 293° |
| 2026-04-11 08:20 | 48.61785 | 12.64255 | 40109 ft | 429 kts | 294° |
| 2026-04-11 08:20 | 48.63944 | 12.55852 | 40112 ft | 428 kts | 294° |
| 2026-04-11 08:21 | 48.66105 | 12.47413 | 40107 ft | 428 kts | 294° |
| 2026-04-11 08:21 | 48.68239 | 12.39046 | 40100 ft | 428 kts | 293° |
| 2026-04-11 08:22 | 48.70375 | 12.30637 | 40100 ft | 428 kts | 293° |
| 2026-04-11 08:22 | 48.72498 | 12.22257 | 40088 ft | 427 kts | 292° |
| 2026-04-11 08:23 | 48.74487 | 12.13786 | 40083 ft | 428 kts | 288° |
| 2026-04-11 08:23 | 48.75783 | 12.04934 | 40075 ft | 431 kts | 282° |
| 2026-04-11 08:24 | 48.76735 | 11.96011 | 40079 ft | 431 kts | 282° |
| 2026-04-11 08:24 | 48.77716 | 11.87034 | 40074 ft | 431 kts | 282° |
| 2026-04-11 08:25 | 48.78677 | 11.78066 | 40073 ft | 431 kts | 282° |
| 2026-04-11 08:25 | 48.79629 | 11.69055 | 40074 ft | 431 kts | 281° |
| 2026-04-11 08:26 | 48.80567 | 11.60102 | 40075 ft | 432 kts | 281° |
| 2026-04-11 08:26 | 48.81497 | 11.51129 | 40076 ft | 432 kts | 281° |
| 2026-04-11 08:27 | 48.82430 | 11.42052 | 40069 ft | 433 kts | 281° |
| 2026-04-11 08:27 | 48.83345 | 11.33081 | 40078 ft | 433 kts | 281° |
| 2026-04-11 08:28 | 48.84951 | 11.24335 | 40076 ft | 430 kts | 296° |
| 2026-04-11 08:28 | 48.86400 | 11.20380 | 39970 ft | 427 kts | 303° |
| 2026-04-11 08:28 | 48.88212 | 11.16826 | 39483 ft | 426 kts | 311° |
| 2026-04-11 08:29 | 48.90329 | 11.13728 | 38723 ft | 429 kts | 316° |
| 2026-04-11 08:29 | 48.92566 | 11.10662 | 37686 ft | 431 kts | 315° |
| 2026-04-11 08:29 | 48.94803 | 11.07563 | 36733 ft | 433 kts | 315° |
| 2026-04-11 08:29 | 48.96996 | 11.04506 | 35824 ft | 434 kts | 314° |
| 2026-04-11 08:30 | 48.99223 | 11.01390 | 34927 ft | 434 kts | 314° |
| 2026-04-11 08:30 | 49.01443 | 10.98274 | 34082 ft | 434 kts | 313° |
| 2026-04-11 08:30 | 49.03673 | 10.95137 | 33085 ft | 434 kts | 314° |
| 2026-04-11 08:30 | 49.05865 | 10.92050 | 32358 ft | 430 kts | 314° |
| 2026-04-11 08:31 | 49.08042 | 10.88985 | 31919 ft | 419 kts | 314° |
| 2026-04-11 08:31 | 49.10157 | 10.86004 | 31566 ft | 408 kts | 314° |
| 2026-04-11 08:31 | 49.12213 | 10.83098 | 30940 ft | 404 kts | 314° |
| 2026-04-11 08:31 | 49.14272 | 10.80181 | 30372 ft | 399 kts | 315° |
| 2026-04-11 08:32 | 49.16271 | 10.77346 | 29756 ft | 395 kts | 315° |
| 2026-04-11 08:32 | 49.18272 | 10.74509 | 29212 ft | 388 kts | 315° |
| 2026-04-11 08:32 | 49.20243 | 10.71705 | 28670 ft | 382 kts | 314° |
| 2026-04-11 08:32 | 49.22117 | 10.68854 | 28123 ft | 376 kts | 312° |
| 2026-04-11 08:33 | 49.23900 | 10.66003 | 27608 ft | 370 kts | 311° |
| 2026-04-11 08:33 | 49.25669 | 10.63154 | 27106 ft | 366 kts | 311° |
| 2026-04-11 08:33 | 49.27421 | 10.60347 | 26572 ft | 363 kts | 312° |
| 2026-04-11 08:33 | 49.29152 | 10.57595 | 26072 ft | 359 kts | 312° |
| 2026-04-11 08:34 | 49.30887 | 10.54845 | 25554 ft | 356 kts | 312° |
| 2026-04-11 08:34 | 49.32602 | 10.52131 | 25066 ft | 353 kts | 312° |
| 2026-04-11 08:34 | 49.34282 | 10.49472 | 24570 ft | 350 kts | 312° |
| 2026-04-11 08:34 | 49.35936 | 10.46745 | 24082 ft | 348 kts | 309° |
| 2026-04-11 08:35 | 49.37397 | 10.43756 | 23792 ft | 353 kts | 304° |
| 2026-04-11 08:35 | 49.38829 | 10.40564 | 23487 ft | 370 kts | 304° |
| 2026-04-11 08:35 | 49.40313 | 10.37320 | 23181 ft | 370 kts | 304° |
| 2026-04-11 08:35 | 49.41793 | 10.34096 | 22905 ft | 368 kts | 304° |
| 2026-04-11 08:36 | 49.43250 | 10.30916 | 22599 ft | 366 kts | 304° |
| 2026-04-11 08:36 | 49.44707 | 10.27724 | 22320 ft | 364 kts | 304° |
| 2026-04-11 08:36 | 49.46158 | 10.24536 | 22027 ft | 363 kts | 304° |
| 2026-04-11 08:36 | 49.47604 | 10.21355 | 21746 ft | 361 kts | 304° |
| 2026-04-11 08:37 | 49.48554 | 10.19261 | 21561 ft | 360 kts | 304° |
| 2026-04-11 08:37 | 49.50453 | 10.15070 | 21192 ft | 358 kts | 304° |
| 2026-04-11 08:37 | 49.51876 | 10.11926 | 20902 ft | 357 kts | 304° |
| 2026-04-11 08:37 | 49.52832 | 10.09810 | 20715 ft | 356 kts | 304° |
| 2026-04-11 08:38 | 49.54229 | 10.06718 | 20440 ft | 356 kts | 304° |
| 2026-04-11 08:38 | 49.55639 | 10.03591 | 20161 ft | 355 kts | 304° |
| 2026-04-11 08:38 | 49.57050 | 10.00460 | 19876 ft | 354 kts | 304° |
| 2026-04-11 08:38 | 49.58450 | 9.97351 | 19596 ft | 352 kts | 304° |
| 2026-04-11 08:39 | 49.59830 | 9.94278 | 19324 ft | 351 kts | 304° |
| 2026-04-11 08:39 | 49.61225 | 9.91173 | 19047 ft | 350 kts | 304° |
| 2026-04-11 08:39 | 49.62613 | 9.88079 | 18761 ft | 349 kts | 303° |
| 2026-04-11 08:39 | 49.63992 | 9.84999 | 18489 ft | 347 kts | 303° |
| 2026-04-11 08:40 | 49.65348 | 9.81966 | 18208 ft | 346 kts | 303° |
| 2026-04-11 08:40 | 49.66713 | 9.78911 | 17928 ft | 345 kts | 303° |
| 2026-04-11 08:40 | 49.68062 | 9.75888 | 17665 ft | 343 kts | 303° |
| 2026-04-11 08:40 | 49.69416 | 9.72852 | 17390 ft | 342 kts | 303° |
| 2026-04-11 08:41 | 49.70765 | 9.69823 | 17114 ft | 340 kts | 303° |
| 2026-04-11 08:41 | 49.72104 | 9.66813 | 16858 ft | 339 kts | 303° |
| 2026-04-11 08:41 | 49.73435 | 9.63817 | 16588 ft | 338 kts | 303° |
| 2026-04-11 08:41 | 49.74749 | 9.60854 | 16312 ft | 337 kts | 303° |
| 2026-04-11 08:42 | 49.76073 | 9.57867 | 16043 ft | 335 kts | 303° |
| 2026-04-11 08:42 | 49.77389 | 9.54893 | 15795 ft | 333 kts | 303° |
| 2026-04-11 08:42 | 49.78692 | 9.51948 | 15525 ft | 332 kts | 303° |
| 2026-04-11 08:43 | 49.81296 | 9.46048 | 15006 ft | 331 kts | 303° |
| 2026-04-11 08:43 | 49.82594 | 9.43101 | 14746 ft | 331 kts | 303° |
| 2026-04-11 08:43 | 49.83886 | 9.40165 | 14487 ft | 329 kts | 303° |
| 2026-04-11 08:43 | 49.85164 | 9.37229 | 14227 ft | 327 kts | 301° |
| 2026-04-11 08:44 | 49.86233 | 9.34123 | 13980 ft | 326 kts | 294° |
| 2026-04-11 08:44 | 49.87000 | 9.30885 | 13821 ft | 319 kts | 287° |
| 2026-04-11 08:44 | 49.87603 | 9.27608 | 13425 ft | 312 kts | 287° |
| 2026-04-11 08:44 | 49.88217 | 9.24382 | 12841 ft | 311 kts | 287° |
| 2026-04-11 08:45 | 49.88836 | 9.21172 | 12256 ft | 309 kts | 287° |
| 2026-04-11 08:45 | 49.89441 | 9.18027 | 11718 ft | 307 kts | 287° |
| 2026-04-11 08:45 | 49.90049 | 9.14854 | 11228 ft | 306 kts | 287° |
| 2026-04-11 08:45 | 49.90648 | 9.11710 | 11044 ft | 300 kts | 287° |
| 2026-04-11 08:46 | 49.91231 | 9.08641 | 11013 ft | 294 kts | 287° |
| 2026-04-11 08:46 | 49.91808 | 9.05604 | 11015 ft | 293 kts | 287° |
| 2026-04-11 08:46 | 49.92381 | 9.02572 | 11016 ft | 293 kts | 287° |
| 2026-04-11 08:46 | 49.92952 | 8.99577 | 11016 ft | 293 kts | 287° |
| 2026-04-11 08:47 | 49.93533 | 8.96538 | 11018 ft | 293 kts | 287° |
| 2026-04-11 08:47 | 49.94114 | 8.93495 | 11017 ft | 293 kts | 287° |
| 2026-04-11 08:47 | 49.94693 | 8.90458 | 11017 ft | 293 kts | 287° |
| 2026-04-11 08:47 | 49.95271 | 8.87425 | 11018 ft | 293 kts | 287° |
| 2026-04-11 08:48 | 49.95850 | 8.84376 | 11011 ft | 293 kts | 287° |
| 2026-04-11 08:48 | 49.96417 | 8.81387 | 10783 ft | 291 kts | 287° |
| 2026-04-11 08:48 | 49.96985 | 8.78380 | 10407 ft | 289 kts | 287° |
| 2026-04-11 08:48 | 49.97553 | 8.75374 | 9913 ft | 289 kts | 286° |
| 2026-04-11 08:49 | 49.97932 | 8.72309 | 9292 ft | 290 kts | 272° |
| 2026-04-11 08:49 | 49.97672 | 8.69206 | 8763 ft | 291 kts | 255° |
| 2026-04-11 08:49 | 49.96966 | 8.66302 | 8228 ft | 290 kts | 250° |
| 2026-04-11 08:49 | 49.96257 | 8.63421 | 8055 ft | 278 kts | 250° |
| 2026-04-11 08:50 | 49.95591 | 8.60667 | 7859 ft | 267 kts | 250° |
| 2026-04-11 08:50 | 49.94946 | 8.57979 | 7451 ft | 265 kts | 250° |
| 2026-04-11 08:50 | 49.94314 | 8.55339 | 7128 ft | 263 kts | 249° |
| 2026-04-11 08:50 | 49.93672 | 8.52669 | 6877 ft | 263 kts | 249° |
| 2026-04-11 08:51 | 49.93036 | 8.50031 | 6637 ft | 259 kts | 249° |
| 2026-04-11 08:51 | 49.92406 | 8.47424 | 6393 ft | 255 kts | 248° |
| 2026-04-11 08:51 | 49.91781 | 8.44835 | 6118 ft | 257 kts | 248° |
| 2026-04-11 08:51 | 49.91159 | 8.42250 | 5865 ft | 254 kts | 247° |
| 2026-04-11 08:52 | 49.89921 | 8.37127 | 5358 ft | 256 kts | 246° |
| 2026-04-11 08:52 | 49.89297 | 8.34551 | 5107 ft | 255 kts | 247° |
| 2026-04-11 08:52 | 49.88664 | 8.31961 | 4865 ft | 256 kts | 247° |
| 2026-04-11 08:53 | 49.88036 | 8.29376 | 4606 ft | 256 kts | 247° |
| 2026-04-11 08:53 | 49.87415 | 8.26810 | 4338 ft | 252 kts | 247° |
| 2026-04-11 08:53 | 49.86800 | 8.24280 | 4075 ft | 248 kts | 247° |
| 2026-04-11 08:53 | 49.86206 | 8.21818 | 3978 ft | 238 kts | 249° |
| 2026-04-11 08:54 | 49.86059 | 8.19298 | 3990 ft | 238 kts | 278° |
| 2026-04-11 08:54 | 49.86760 | 8.16991 | 3996 ft | 241 kts | 310° |
| 2026-04-11 08:54 | 49.88119 | 8.15534 | 3996 ft | 245 kts | 340° |
| 2026-04-11 08:54 | 49.89766 | 8.14774 | 3995 ft | 248 kts | 343° |
| 2026-04-11 08:55 | 49.91457 | 8.14408 | 3987 ft | 246 kts | 9° |
| 2026-04-11 08:55 | 49.92982 | 8.15474 | 4007 ft | 241 kts | 45° |
| 2026-04-11 08:55 | 49.93992 | 8.17494 | 4006 ft | 236 kts | 64° |
| 2026-04-11 08:55 | 49.94682 | 8.19780 | 4004 ft | 235 kts | 71° |
| 2026-04-11 08:56 | 49.95260 | 8.22141 | 3997 ft | 232 kts | 73° |
| 2026-04-11 08:56 | 49.95820 | 8.24476 | 4017 ft | 225 kts | 73° |
| 2026-04-11 08:56 | 49.96352 | 8.26684 | 3976 ft | 215 kts | 73° |
| 2026-04-11 08:56 | 49.96867 | 8.28836 | 3742 ft | 204 kts | 73° |
| 2026-04-11 08:57 | 49.97341 | 8.30798 | 3456 ft | 185 kts | 74° |
| 2026-04-11 08:57 | 49.97778 | 8.32639 | 3192 ft | 175 kts | 75° |
| 2026-04-11 08:57 | 49.98200 | 8.34394 | 2966 ft | 171 kts | 75° |
| 2026-04-11 08:57 | 49.98608 | 8.36106 | 2737 ft | 171 kts | 75° |
| 2026-04-11 08:58 | 49.99020 | 8.37826 | 2492 ft | 164 kts | 76° |
| 2026-04-11 08:58 | 49.99406 | 8.39430 | 2280 ft | 152 kts | 75° |
| 2026-04-11 08:58 | 49.99755 | 8.40868 | 2088 ft | 135 kts | 75° |
| 2026-04-11 08:58 | 50.00065 | 8.42191 | 1903 ft | 129 kts | 74° |
| 2026-04-11 08:59 | 50.00377 | 8.43489 | 1736 ft | 127 kts | 73° |
| 2026-04-11 08:59 | 50.00683 | 8.44781 | 1545 ft | 129 kts | 75° |
| 2026-04-11 08:59 | 50.00996 | 8.46088 | 1373 ft | 128 kts | 73° |
| 2026-04-11 08:59 | 50.01305 | 8.47363 | 1185 ft | 126 kts | 73° |
| 2026-04-11 09:00 | 50.01611 | 8.48648 | 1009 ft | 126 kts | 71° |
| 2026-04-11 09:00 | 50.01921 | 8.49944 | 834 ft | 130 kts | 70° |
| 2026-04-11 09:00 | 50.02231 | 8.51241 | 668 ft | 128 kts | 71° |
| 2026-04-11 09:00 | 50.02535 | 8.52519 | 523 ft | 125 kts | 69° |
| 2026-04-11 09:01 | 50.02845 | 8.53795 | 380 ft | 126 kts | 71° |
| 2026-04-11 09:01 | 50.03139 | 8.54966 | 356 ft | 96 kts | 72° |
| 2026-04-11 09:01 | 50.03307 | 8.55727 | 359 ft | 57 kts | 69° |
| 2026-04-11 09:01 | 50.03418 | 8.56198 | 363 ft | 39 kts | 70° |
| 2026-04-11 09:02 | 50.03501 | 8.56545 | 365 ft | 30 kts | 69° |
| 2026-04-11 09:02 | 50.03570 | 8.56822 | 359 ft | 25 kts | 64° |
| 2026-04-11 09:02 | 50.03672 | 8.57042 | 367 ft | 28 kts | 43° |
| 2026-04-11 09:02 | 50.03809 | 8.57220 | 372 ft | 24 kts | 40° |
| 2026-04-11 09:03 | 50.03919 | 8.57363 | 374 ft | 18 kts | 42° |
| 2026-04-11 09:03 | 50.03982 | 8.57523 | 372 ft | 18 kts | 70° |
| 2026-04-11 09:03 | 50.04025 | 8.57706 | 374 ft | 18 kts | 70° |
| 2026-04-11 09:03 | 50.04070 | 8.57894 | 374 ft | 19 kts | 69° |
| 2026-04-11 09:04 | 50.04113 | 8.58069 | 377 ft | 13 kts | 69° |
| 2026-04-11 09:04 | 50.04179 | 8.58167 | 375 ft | 13 kts | 27° |
| 2026-04-11 09:04 | 50.04244 | 8.58207 | 376 ft | 7 kts | 3° |
| 2026-04-11 09:04 | 50.04249 | 8.58207 | 376 ft | 0 kts | 359° |
| 2026-04-11 09:06 | 50.04279 | 8.58201 | 373 ft | 10 kts | 347° |
| 2026-04-11 09:06 | 50.04361 | 8.58160 | 375 ft | 14 kts | 339° |
| 2026-04-11 09:06 | 50.04473 | 8.58095 | 371 ft | 20 kts | 339° |
| 2026-04-11 09:07 | 50.04618 | 8.58010 | 368 ft | 21 kts | 340° |
| 2026-04-11 09:07 | 50.04711 | 8.57956 | 369 ft | 8 kts | 340° |
| 2026-04-11 09:07 | 50.04753 | 8.57927 | 367 ft | 5 kts | 308° |
| 2026-04-11 09:07 | 50.04762 | 8.57860 | 368 ft | 8 kts | 272° |
| 2026-04-11 09:08 | 50.04762 | 8.57796 | 366 ft | 3 kts | 270° |
| 2026-04-11 09:08 | 50.04763 | 8.57766 | 366 ft | 1 kts | 270° |
| 2026-04-11 09:08 | 50.04763 | 8.57760 | 366 ft | 0 kts | 270° |